<?xml version="1.0" encoding="UTF-8"?>
<gpx version="1.0" creator="Trackator" xmlns:xsi="http://www.w3.org/2001/XMLSchema-instance" xmlns="http://www.topografix.com/GPX/1/0" xmlns:topografix="http://www.topografix.com/GPX/Private/TopoGrafix/0/1" xsi:schemaLocation="http://www.topografix.com/GPX/1/0 http://www.topografix.com/GPX/1/0/gpx.xsd http://www.topografix.com/GPX/Private/TopoGrafix/0/1 http://www.topografix.com/GPX/Private/TopoGrafix/0/1/topografix.xsd">
<metadata>
<link href="http://www.trackator.com">
<text>Trackator</text>
</link>
</metadata>
<time>2015-06-25T11:55:10Z</time>
<trk>
<name>Track: </name>
<desc>4x4-SUV</desc>
<trkseg>
<trkpt lat="53.3483877" lon="18.4418407">
<ele>102</ele>
<time>2015-06-25T11:55:10Z</time>
</trkpt>
<trkpt lat="53.3483743" lon="18.4418436">
<ele>111</ele>
<time>2015-06-25T11:55:12Z</time>
</trkpt>
<trkpt lat="53.3483303" lon="18.4416453">
<ele>111</ele>
<time>2015-06-25T11:55:14Z</time>
</trkpt>
<trkpt lat="53.3483268" lon="18.4417804">
<ele>89</ele>
<time>2015-06-25T11:55:16Z</time>
</trkpt>
<trkpt lat="53.3483007" lon="18.4418136">
<ele>89</ele>
<time>2015-06-25T11:55:20Z</time>
</trkpt>
<trkpt lat="53.3483219" lon="18.4418227">
<ele>89</ele>
<time>2015-06-25T11:55:22Z</time>
</trkpt>
<trkpt lat="53.3483172" lon="18.4417801">
<ele>90</ele>
<time>2015-06-25T11:55:24Z</time>
</trkpt>
<trkpt lat="53.3483297" lon="18.4417734">
<ele>91</ele>
<time>2015-06-25T11:55:26Z</time>
</trkpt>
<trkpt lat="53.3483285" lon="18.4417650">
<ele>91</ele>
<time>2015-06-25T11:55:28Z</time>
</trkpt>
<trkpt lat="53.3483283" lon="18.4417631">
<ele>91</ele>
<time>2015-06-25T11:55:30Z</time>
</trkpt>
<trkpt lat="53.3483278" lon="18.4417590">
<ele>91</ele>
<time>2015-06-25T11:55:32Z</time>
</trkpt>
<trkpt lat="53.3483278" lon="18.4417585">
<ele>91</ele>
<time>2015-06-25T11:55:34Z</time>
</trkpt>
<trkpt lat="53.3483266" lon="18.4417594">
<ele>91</ele>
<time>2015-06-25T11:55:36Z</time>
</trkpt>
<trkpt lat="53.3483265" lon="18.4417594">
<ele>91</ele>
<time>2015-06-25T11:55:38Z</time>
</trkpt>
<trkpt lat="53.3483144" lon="18.4417514">
<ele>91</ele>
<time>2015-06-25T11:55:40Z</time>
</trkpt>
<trkpt lat="53.3482839" lon="18.4417196">
<ele>92</ele>
<time>2015-06-25T11:55:42Z</time>
</trkpt>
<trkpt lat="53.3482889" lon="18.4417407">
<ele>94</ele>
<time>2015-06-25T11:55:44Z</time>
</trkpt>
<trkpt lat="53.3482808" lon="18.4417375">
<ele>94</ele>
<time>2015-06-25T11:55:46Z</time>
</trkpt>
<trkpt lat="53.3482710" lon="18.4417451">
<ele>94</ele>
<time>2015-06-25T11:55:48Z</time>
</trkpt>
<trkpt lat="53.3482722" lon="18.4417512">
<ele>94</ele>
<time>2015-06-25T11:55:50Z</time>
</trkpt>
<trkpt lat="53.3482596" lon="18.4417282">
<ele>94</ele>
<time>2015-06-25T11:55:52Z</time>
</trkpt>
<trkpt lat="53.3482845" lon="18.4416412">
<ele>96</ele>
<time>2015-06-25T11:55:54Z</time>
</trkpt>
<trkpt lat="53.3483060" lon="18.4415820">
<ele>96</ele>
<time>2015-06-25T11:55:56Z</time>
</trkpt>
<trkpt lat="53.3483274" lon="18.4414843">
<ele>95</ele>
<time>2015-06-25T11:55:58Z</time>
</trkpt>
<trkpt lat="53.3483586" lon="18.4413788">
<ele>98</ele>
<time>2015-06-25T11:56:00Z</time>
</trkpt>
<trkpt lat="53.3484019" lon="18.4412710">
<ele>98</ele>
<time>2015-06-25T11:56:02Z</time>
</trkpt>
<trkpt lat="53.3484410" lon="18.4411782">
<ele>96</ele>
<time>2015-06-25T11:56:04Z</time>
</trkpt>
<trkpt lat="53.3484822" lon="18.4411143">
<ele>100</ele>
<time>2015-06-25T11:56:06Z</time>
</trkpt>
<trkpt lat="53.3485390" lon="18.4410257">
<ele>101</ele>
<time>2015-06-25T11:56:08Z</time>
</trkpt>
<trkpt lat="53.3486017" lon="18.4409450">
<ele>98</ele>
<time>2015-06-25T11:56:10Z</time>
</trkpt>
<trkpt lat="53.3486835" lon="18.4409193">
<ele>100</ele>
<time>2015-06-25T11:56:12Z</time>
</trkpt>
<trkpt lat="53.3487628" lon="18.4408983">
<ele>100</ele>
<time>2015-06-25T11:56:14Z</time>
</trkpt>
<trkpt lat="53.3488225" lon="18.4408735">
<ele>99</ele>
<time>2015-06-25T11:56:16Z</time>
</trkpt>
<trkpt lat="53.3488875" lon="18.4408222">
<ele>101</ele>
<time>2015-06-25T11:56:18Z</time>
</trkpt>
<trkpt lat="53.3489855" lon="18.4406073">
<ele>101</ele>
<time>2015-06-25T11:56:20Z</time>
</trkpt>
<trkpt lat="53.3490633" lon="18.4404355">
<ele>100</ele>
<time>2015-06-25T11:56:22Z</time>
</trkpt>
<trkpt lat="53.3491357" lon="18.4402593">
<ele>99</ele>
<time>2015-06-25T11:56:24Z</time>
</trkpt>
<trkpt lat="53.3491911" lon="18.4401754">
<ele>99</ele>
<time>2015-06-25T11:56:26Z</time>
</trkpt>
<trkpt lat="53.3492160" lon="18.4401285">
<ele>100</ele>
<time>2015-06-25T11:56:28Z</time>
</trkpt>
<trkpt lat="53.3492167" lon="18.4400212">
<ele>102</ele>
<time>2015-06-25T11:56:30Z</time>
</trkpt>
<trkpt lat="53.3491869" lon="18.4399352">
<ele>101</ele>
<time>2015-06-25T11:56:32Z</time>
</trkpt>
<trkpt lat="53.3490597" lon="18.4399049">
<ele>104</ele>
<time>2015-06-25T11:56:34Z</time>
</trkpt>
<trkpt lat="53.3489547" lon="18.4398132">
<ele>102</ele>
<time>2015-06-25T11:56:36Z</time>
</trkpt>
<trkpt lat="53.3489313" lon="18.4397585">
<ele>103</ele>
<time>2015-06-25T11:56:38Z</time>
</trkpt>
<trkpt lat="53.3489135" lon="18.4397432">
<ele>102</ele>
<time>2015-06-25T11:56:40Z</time>
</trkpt>
<trkpt lat="53.3489165" lon="18.4397536">
<ele>97</ele>
<time>2015-06-25T11:56:42Z</time>
</trkpt>
<trkpt lat="53.3489276" lon="18.4397360">
<ele>96</ele>
<time>2015-06-25T11:56:44Z</time>
</trkpt>
<trkpt lat="53.3489172" lon="18.4397203">
<ele>94</ele>
<time>2015-06-25T11:56:46Z</time>
</trkpt>
<trkpt lat="53.3489121" lon="18.439678">
<ele>96</ele>
<time>2015-06-25T11:56:48Z</time>
</trkpt>
<trkpt lat="53.3489151" lon="18.4396761">
<ele>97</ele>
<time>2015-06-25T11:56:50Z</time>
</trkpt>
<trkpt lat="53.3489171" lon="18.4396830">
<ele>97</ele>
<time>2015-06-25T11:56:52Z</time>
</trkpt>
<trkpt lat="53.3489159" lon="18.4396877">
<ele>96</ele>
<time>2015-06-25T11:56:54Z</time>
</trkpt>
<trkpt lat="53.3489145" lon="18.4396775">
<ele>97</ele>
<time>2015-06-25T11:56:56Z</time>
</trkpt>
<trkpt lat="53.3489185" lon="18.4396153">
<ele>96</ele>
<time>2015-06-25T11:56:58Z</time>
</trkpt>
<trkpt lat="53.3489929" lon="18.4393428">
<ele>97</ele>
<time>2015-06-25T11:57:00Z</time>
</trkpt>
<trkpt lat="53.3490478" lon="18.4391342">
<ele>97</ele>
<time>2015-06-25T11:57:02Z</time>
</trkpt>
<trkpt lat="53.3491411" lon="18.4387332">
<ele>98</ele>
<time>2015-06-25T11:57:06Z</time>
</trkpt>
<trkpt lat="53.3491764" lon="18.4385306">
<ele>98</ele>
<time>2015-06-25T11:57:08Z</time>
</trkpt>
<trkpt lat="53.3492193" lon="18.4383934">
<ele>97</ele>
<time>2015-06-25T11:57:10Z</time>
</trkpt>
<trkpt lat="53.3492603" lon="18.4382325">
<ele>96</ele>
<time>2015-06-25T11:57:12Z</time>
</trkpt>
<trkpt lat="53.3492933" lon="18.4380232">
<ele>91</ele>
<time>2015-06-25T11:57:14Z</time>
</trkpt>
<trkpt lat="53.3493579" lon="18.4378052">
<ele>90</ele>
<time>2015-06-25T11:57:16Z</time>
</trkpt>
<trkpt lat="53.3494094" lon="18.4376081">
<ele>89</ele>
<time>2015-06-25T11:57:18Z</time>
</trkpt>
<trkpt lat="53.3495222" lon="18.4373415">
<ele>90</ele>
<time>2015-06-25T11:57:20Z</time>
</trkpt>
<trkpt lat="53.3495913" lon="18.4371116">
<ele>92</ele>
<time>2015-06-25T11:57:22Z</time>
</trkpt>
<trkpt lat="53.3496011" lon="18.4369007">
<ele>89</ele>
<time>2015-06-25T11:57:24Z</time>
</trkpt>
<trkpt lat="53.3495885" lon="18.4366761">
<ele>89</ele>
<time>2015-06-25T11:57:28Z</time>
</trkpt>
<trkpt lat="53.3495616" lon="18.4366131">
<ele>92</ele>
<time>2015-06-25T11:57:30Z</time>
</trkpt>
<trkpt lat="53.3495348" lon="18.4366323">
<ele>94</ele>
<time>2015-06-25T11:57:32Z</time>
</trkpt>
<trkpt lat="53.3494677" lon="18.4366296">
<ele>94</ele>
<time>2015-06-25T11:57:34Z</time>
</trkpt>
<trkpt lat="53.3493929" lon="18.4365510">
<ele>94</ele>
<time>2015-06-25T11:57:36Z</time>
</trkpt>
<trkpt lat="53.3493313" lon="18.4365133">
<ele>94</ele>
<time>2015-06-25T11:57:38Z</time>
</trkpt>
<trkpt lat="53.3492653" lon="18.4364698">
<ele>94</ele>
<time>2015-06-25T11:57:40Z</time>
</trkpt>
<trkpt lat="53.3490172" lon="18.4362406">
<ele>90</ele>
<time>2015-06-25T11:57:44Z</time>
</trkpt>
<trkpt lat="53.3489644" lon="18.4358258">
<ele>92</ele>
<time>2015-06-25T11:57:48Z</time>
</trkpt>
<trkpt lat="53.3489365" lon="18.4354961">
<ele>91</ele>
<time>2015-06-25T11:57:50Z</time>
</trkpt>
<trkpt lat="53.3489261" lon="18.4352075">
<ele>93</ele>
<time>2015-06-25T11:57:52Z</time>
</trkpt>
<trkpt lat="53.3489013" lon="18.4349171">
<ele>95</ele>
<time>2015-06-25T11:57:54Z</time>
</trkpt>
<trkpt lat="53.3488845" lon="18.4345597">
<ele>94</ele>
<time>2015-06-25T11:57:56Z</time>
</trkpt>
<trkpt lat="53.3488658" lon="18.4342057">
<ele>94</ele>
<time>2015-06-25T11:57:58Z</time>
</trkpt>
<trkpt lat="53.3488535" lon="18.4336752">
<ele>94</ele>
<time>2015-06-25T11:58:00Z</time>
</trkpt>
<trkpt lat="53.3487403" lon="18.4331728">
<ele>89</ele>
<time>2015-06-25T11:58:02Z</time>
</trkpt>
<trkpt lat="53.3486574" lon="18.4327144">
<ele>90</ele>
<time>2015-06-25T11:58:04Z</time>
</trkpt>
<trkpt lat="53.3485882" lon="18.4322332">
<ele>91</ele>
<time>2015-06-25T11:58:06Z</time>
</trkpt>
<trkpt lat="53.3485087" lon="18.4318094">
<ele>94</ele>
<time>2015-06-25T11:58:08Z</time>
</trkpt>
<trkpt lat="53.3484945" lon="18.4313894">
<ele>94</ele>
<time>2015-06-25T11:58:10Z</time>
</trkpt>
<trkpt lat="53.3484140" lon="18.4310179">
<ele>92</ele>
<time>2015-06-25T11:58:12Z</time>
</trkpt>
<trkpt lat="53.3483740" lon="18.4306249">
<ele>91</ele>
<time>2015-06-25T11:58:14Z</time>
</trkpt>
<trkpt lat="53.3483278" lon="18.4301887">
<ele>92</ele>
<time>2015-06-25T11:58:16Z</time>
</trkpt>
<trkpt lat="53.3482482" lon="18.4297455">
<ele>91</ele>
<time>2015-06-25T11:58:18Z</time>
</trkpt>
<trkpt lat="53.3482011" lon="18.4292810">
<ele>93</ele>
<time>2015-06-25T11:58:20Z</time>
</trkpt>
<trkpt lat="53.3481971" lon="18.4288154">
<ele>90</ele>
<time>2015-06-25T11:58:22Z</time>
</trkpt>
<trkpt lat="53.3482291" lon="18.4283061">
<ele>94</ele>
<time>2015-06-25T11:58:24Z</time>
</trkpt>
<trkpt lat="53.3482817" lon="18.4277262">
<ele>94</ele>
<time>2015-06-25T11:58:26Z</time>
</trkpt>
<trkpt lat="53.3483350" lon="18.4272016">
<ele>92</ele>
<time>2015-06-25T11:58:28Z</time>
</trkpt>
<trkpt lat="53.3483706" lon="18.4268150">
<ele>95</ele>
<time>2015-06-25T11:58:30Z</time>
</trkpt>
<trkpt lat="53.3484913" lon="18.4266433">
<ele>94</ele>
<time>2015-06-25T11:58:32Z</time>
</trkpt>
<trkpt lat="53.3485990" lon="18.4267085">
<ele>94</ele>
<time>2015-06-25T11:58:34Z</time>
</trkpt>
<trkpt lat="53.3487544" lon="18.4266667">
<ele>96</ele>
<time>2015-06-25T11:58:36Z</time>
</trkpt>
<trkpt lat="53.3488859" lon="18.4265815">
<ele>93</ele>
<time>2015-06-25T11:58:38Z</time>
</trkpt>
<trkpt lat="53.3488546" lon="18.4264093">
<ele>93</ele>
<time>2015-06-25T11:58:40Z</time>
</trkpt>
<trkpt lat="53.3488896" lon="18.4263146">
<ele>94</ele>
<time>2015-06-25T11:58:42Z</time>
</trkpt>
<trkpt lat="53.3489618" lon="18.4259381">
<ele>95</ele>
<time>2015-06-25T11:58:44Z</time>
</trkpt>
<trkpt lat="53.3487189" lon="18.4257056">
<ele>96</ele>
<time>2015-06-25T11:58:46Z</time>
</trkpt>
<trkpt lat="53.3486000" lon="18.4255026">
<ele>96</ele>
<time>2015-06-25T11:58:48Z</time>
</trkpt>
<trkpt lat="53.3485293" lon="18.4253011">
<ele>95</ele>
<time>2015-06-25T11:58:50Z</time>
</trkpt>
<trkpt lat="53.3484052" lon="18.4250955">
<ele>96</ele>
<time>2015-06-25T11:58:52Z</time>
</trkpt>
<trkpt lat="53.3483528" lon="18.4248549">
<ele>97</ele>
<time>2015-06-25T11:58:54Z</time>
</trkpt>
<trkpt lat="53.3482368" lon="18.4244622">
<ele>95</ele>
<time>2015-06-25T11:58:56Z</time>
</trkpt>
<trkpt lat="53.3481102" lon="18.4241419">
<ele>97</ele>
<time>2015-06-25T11:58:58Z</time>
</trkpt>
<trkpt lat="53.3479737" lon="18.4237578">
<ele>98</ele>
<time>2015-06-25T11:59:00Z</time>
</trkpt>
<trkpt lat="53.3479406" lon="18.4234598">
<ele>98</ele>
<time>2015-06-25T11:59:02Z</time>
</trkpt>
<trkpt lat="53.3478386" lon="18.4233841">
<ele>100</ele>
<time>2015-06-25T11:59:04Z</time>
</trkpt>
<trkpt lat="53.3477194" lon="18.4233123">
<ele>98</ele>
<time>2015-06-25T11:59:06Z</time>
</trkpt>
<trkpt lat="53.3476461" lon="18.4234133">
<ele>102</ele>
<time>2015-06-25T11:59:08Z</time>
</trkpt>
<trkpt lat="53.3475057" lon="18.4235539">
<ele>103</ele>
<time>2015-06-25T11:59:10Z</time>
</trkpt>
<trkpt lat="53.3473380" lon="18.4236956">
<ele>103</ele>
<time>2015-06-25T11:59:12Z</time>
</trkpt>
<trkpt lat="53.3471739" lon="18.4238384">
<ele>103</ele>
<time>2015-06-25T11:59:14Z</time>
</trkpt>
<trkpt lat="53.3468405" lon="18.4240642">
<ele>97</ele>
<time>2015-06-25T11:59:16Z</time>
</trkpt>
<trkpt lat="53.3467478" lon="18.4241009">
<ele>104</ele>
<time>2015-06-25T11:59:18Z</time>
</trkpt>
<trkpt lat="53.3466382" lon="18.4240124">
<ele>102</ele>
<time>2015-06-25T11:59:20Z</time>
</trkpt>
<trkpt lat="53.3465763" lon="18.4238707">
<ele>101</ele>
<time>2015-06-25T11:59:22Z</time>
</trkpt>
<trkpt lat="53.3464503" lon="18.4237663">
<ele>99</ele>
<time>2015-06-25T11:59:24Z</time>
</trkpt>
<trkpt lat="53.3463229" lon="18.4234890">
<ele>94</ele>
<time>2015-06-25T11:59:26Z</time>
</trkpt>
<trkpt lat="53.3462609" lon="18.4233483">
<ele>88</ele>
<time>2015-06-25T11:59:28Z</time>
</trkpt>
<trkpt lat="53.3461741" lon="18.4233142">
<ele>85</ele>
<time>2015-06-25T11:59:30Z</time>
</trkpt>
<trkpt lat="53.3461286" lon="18.4232795">
<ele>85</ele>
<time>2015-06-25T11:59:32Z</time>
</trkpt>
<trkpt lat="53.3461516" lon="18.4231869">
<ele>88</ele>
<time>2015-06-25T11:59:34Z</time>
</trkpt>
<trkpt lat="53.3461431" lon="18.4230573">
<ele>85</ele>
<time>2015-06-25T11:59:36Z</time>
</trkpt>
<trkpt lat="53.3460352" lon="18.4229372">
<ele>85</ele>
<time>2015-06-25T11:59:38Z</time>
</trkpt>
<trkpt lat="53.3459351" lon="18.4227282">
<ele>86</ele>
<time>2015-06-25T11:59:40Z</time>
</trkpt>
<trkpt lat="53.3458076" lon="18.4224019">
<ele>83</ele>
<time>2015-06-25T11:59:42Z</time>
</trkpt>
<trkpt lat="53.3456347" lon="18.4220069">
<ele>82</ele>
<time>2015-06-25T11:59:44Z</time>
</trkpt>
<trkpt lat="53.3455533" lon="18.4215720">
<ele>80</ele>
<time>2015-06-25T11:59:46Z</time>
</trkpt>
<trkpt lat="53.3454217" lon="18.4211912">
<ele>82</ele>
<time>2015-06-25T11:59:48Z</time>
</trkpt>
<trkpt lat="53.3452837" lon="18.4207225">
<ele>76</ele>
<time>2015-06-25T11:59:50Z</time>
</trkpt>
<trkpt lat="53.3452138" lon="18.4203073">
<ele>75</ele>
<time>2015-06-25T11:59:52Z</time>
</trkpt>
<trkpt lat="53.3451288" lon="18.4199105">
<ele>75</ele>
<time>2015-06-25T11:59:54Z</time>
</trkpt>
<trkpt lat="53.3450015" lon="18.4196501">
<ele>74</ele>
<time>2015-06-25T11:59:56Z</time>
</trkpt>
<trkpt lat="53.3448796" lon="18.4194662">
<ele>74</ele>
<time>2015-06-25T11:59:58Z</time>
</trkpt>
<trkpt lat="53.3448127" lon="18.4192931">
<ele>76</ele>
<time>2015-06-25T12:00:00Z</time>
</trkpt>
<trkpt lat="53.3447201" lon="18.4191323">
<ele>77</ele>
<time>2015-06-25T12:00:02Z</time>
</trkpt>
<trkpt lat="53.3446180" lon="18.4189725">
<ele>80</ele>
<time>2015-06-25T12:00:04Z</time>
</trkpt>
<trkpt lat="53.3445020" lon="18.4188465">
<ele>81</ele>
<time>2015-06-25T12:00:06Z</time>
</trkpt>
<trkpt lat="53.3442620" lon="18.4186969">
<ele>81</ele>
<time>2015-06-25T12:00:08Z</time>
</trkpt>
<trkpt lat="53.3439647" lon="18.4186157">
<ele>78</ele>
<time>2015-06-25T12:00:10Z</time>
</trkpt>
<trkpt lat="53.3436590" lon="18.4184578">
<ele>78</ele>
<time>2015-06-25T12:00:12Z</time>
</trkpt>
<trkpt lat="53.3433792" lon="18.4182702">
<ele>80</ele>
<time>2015-06-25T12:00:14Z</time>
</trkpt>
<trkpt lat="53.3430818" lon="18.4181348">
<ele>75</ele>
<time>2015-06-25T12:00:16Z</time>
</trkpt>
<trkpt lat="53.3428293" lon="18.4180733">
<ele>75</ele>
<time>2015-06-25T12:00:18Z</time>
</trkpt>
<trkpt lat="53.3425501" lon="18.4179351">
<ele>72</ele>
<time>2015-06-25T12:00:20Z</time>
</trkpt>
<trkpt lat="53.3422947" lon="18.4178343">
<ele>73</ele>
<time>2015-06-25T12:00:22Z</time>
</trkpt>
<trkpt lat="53.3420210" lon="18.4176436">
<ele>76</ele>
<time>2015-06-25T12:00:24Z</time>
</trkpt>
<trkpt lat="53.3417454" lon="18.4175139">
<ele>74</ele>
<time>2015-06-25T12:00:26Z</time>
</trkpt>
<trkpt lat="53.3414834" lon="18.4174529">
<ele>75</ele>
<time>2015-06-25T12:00:28Z</time>
</trkpt>
<trkpt lat="53.3412152" lon="18.4174641">
<ele>73</ele>
<time>2015-06-25T12:00:30Z</time>
</trkpt>
<trkpt lat="53.3409979" lon="18.4176391">
<ele>75</ele>
<time>2015-06-25T12:00:32Z</time>
</trkpt>
<trkpt lat="53.3407700" lon="18.4179307">
<ele>72</ele>
<time>2015-06-25T12:00:34Z</time>
</trkpt>
<trkpt lat="53.3405357" lon="18.4181828">
<ele>72</ele>
<time>2015-06-25T12:00:36Z</time>
</trkpt>
<trkpt lat="53.3403055" lon="18.4184896">
<ele>70</ele>
<time>2015-06-25T12:00:38Z</time>
</trkpt>
<trkpt lat="53.3400789" lon="18.4188068">
<ele>70</ele>
<time>2015-06-25T12:00:40Z</time>
</trkpt>
<trkpt lat="53.3398690" lon="18.4191274">
<ele>70</ele>
<time>2015-06-25T12:00:42Z</time>
</trkpt>
<trkpt lat="53.3396862" lon="18.4193883">
<ele>74</ele>
<time>2015-06-25T12:00:44Z</time>
</trkpt>
<trkpt lat="53.3394259" lon="18.4194677">
<ele>76</ele>
<time>2015-06-25T12:00:46Z</time>
</trkpt>
<trkpt lat="53.3391908" lon="18.419617">
<ele>79</ele>
<time>2015-06-25T12:00:48Z</time>
</trkpt>
<trkpt lat="53.3389132" lon="18.4197779">
<ele>77</ele>
<time>2015-06-25T12:00:50Z</time>
</trkpt>
<trkpt lat="53.3386288" lon="18.4198610">
<ele>78</ele>
<time>2015-06-25T12:00:52Z</time>
</trkpt>
<trkpt lat="53.3383577" lon="18.4198667">
<ele>77</ele>
<time>2015-06-25T12:00:54Z</time>
</trkpt>
<trkpt lat="53.3380620" lon="18.4196852">
<ele>79</ele>
<time>2015-06-25T12:00:56Z</time>
</trkpt>
<trkpt lat="53.3377819" lon="18.4195595">
<ele>78</ele>
<time>2015-06-25T12:00:58Z</time>
</trkpt>
<trkpt lat="53.3373473" lon="18.4196910">
<ele>78</ele>
<time>2015-06-25T12:01:02Z</time>
</trkpt>
<trkpt lat="53.3371642" lon="18.4198984">
<ele>78</ele>
<time>2015-06-25T12:01:04Z</time>
</trkpt>
<trkpt lat="53.3369028" lon="18.4201162">
<ele>80</ele>
<time>2015-06-25T12:01:06Z</time>
</trkpt>
<trkpt lat="53.3366634" lon="18.4202886">
<ele>83</ele>
<time>2015-06-25T12:01:08Z</time>
</trkpt>
<trkpt lat="53.3363950" lon="18.4204190">
<ele>85</ele>
<time>2015-06-25T12:01:10Z</time>
</trkpt>
<trkpt lat="53.3360978" lon="18.4205392">
<ele>85</ele>
<time>2015-06-25T12:01:12Z</time>
</trkpt>
<trkpt lat="53.335855" lon="18.4205744">
<ele>80</ele>
<time>2015-06-25T12:01:14Z</time>
</trkpt>
<trkpt lat="53.3356691" lon="18.4204774">
<ele>86</ele>
<time>2015-06-25T12:01:16Z</time>
</trkpt>
<trkpt lat="53.3354724" lon="18.4204113">
<ele>90</ele>
<time>2015-06-25T12:01:18Z</time>
</trkpt>
<trkpt lat="53.3352819" lon="18.4203512">
<ele>92</ele>
<time>2015-06-25T12:01:20Z</time>
</trkpt>
<trkpt lat="53.3351398" lon="18.4202806">
<ele>92</ele>
<time>2015-06-25T12:01:22Z</time>
</trkpt>
<trkpt lat="53.3350089" lon="18.4201997">
<ele>92</ele>
<time>2015-06-25T12:01:24Z</time>
</trkpt>
<trkpt lat="53.3348839" lon="18.4201329">
<ele>92</ele>
<time>2015-06-25T12:01:26Z</time>
</trkpt>
<trkpt lat="53.3347906" lon="18.4200272">
<ele>93</ele>
<time>2015-06-25T12:01:28Z</time>
</trkpt>
<trkpt lat="53.3346511" lon="18.4199321">
<ele>95</ele>
<time>2015-06-25T12:01:30Z</time>
</trkpt>
<trkpt lat="53.3345015" lon="18.4198206">
<ele>94</ele>
<time>2015-06-25T12:01:32Z</time>
</trkpt>
<trkpt lat="53.3343441" lon="18.4197325">
<ele>94</ele>
<time>2015-06-25T12:01:34Z</time>
</trkpt>
<trkpt lat="53.3341777" lon="18.4196514">
<ele>94</ele>
<time>2015-06-25T12:01:36Z</time>
</trkpt>
<trkpt lat="53.3340583" lon="18.4195746">
<ele>92</ele>
<time>2015-06-25T12:01:38Z</time>
</trkpt>
<trkpt lat="53.3339455" lon="18.4194909">
<ele>94</ele>
<time>2015-06-25T12:01:40Z</time>
</trkpt>
<trkpt lat="53.3338472" lon="18.4194246">
<ele>93</ele>
<time>2015-06-25T12:01:42Z</time>
</trkpt>
<trkpt lat="53.3337466" lon="18.4193637">
<ele>93</ele>
<time>2015-06-25T12:01:44Z</time>
</trkpt>
<trkpt lat="53.3336444" lon="18.4193675">
<ele>91</ele>
<time>2015-06-25T12:01:46Z</time>
</trkpt>
<trkpt lat="53.3335834" lon="18.4193408">
<ele>89</ele>
<time>2015-06-25T12:01:48Z</time>
</trkpt>
<trkpt lat="53.3334824" lon="18.419274">
<ele>93</ele>
<time>2015-06-25T12:01:50Z</time>
</trkpt>
<trkpt lat="53.3333741" lon="18.4192184">
<ele>96</ele>
<time>2015-06-25T12:01:52Z</time>
</trkpt>
<trkpt lat="53.3332597" lon="18.4191960">
<ele>100</ele>
<time>2015-06-25T12:01:54Z</time>
</trkpt>
<trkpt lat="53.3331521" lon="18.4191869">
<ele>104</ele>
<time>2015-06-25T12:01:56Z</time>
</trkpt>
<trkpt lat="53.3330020" lon="18.4191891">
<ele>106</ele>
<time>2015-06-25T12:01:58Z</time>
</trkpt>
<trkpt lat="53.3328495" lon="18.4192215">
<ele>105</ele>
<time>2015-06-25T12:02:00Z</time>
</trkpt>
<trkpt lat="53.3326714" lon="18.4192460">
<ele>103</ele>
<time>2015-06-25T12:02:02Z</time>
</trkpt>
<trkpt lat="53.3325082" lon="18.4192643">
<ele>104</ele>
<time>2015-06-25T12:02:04Z</time>
</trkpt>
<trkpt lat="53.3323421" lon="18.4192996">
<ele>104</ele>
<time>2015-06-25T12:02:06Z</time>
</trkpt>
<trkpt lat="53.3321680" lon="18.4193130">
<ele>106</ele>
<time>2015-06-25T12:02:08Z</time>
</trkpt>
<trkpt lat="53.3320242" lon="18.4193349">
<ele>105</ele>
<time>2015-06-25T12:02:10Z</time>
</trkpt>
<trkpt lat="53.3318876" lon="18.4193508">
<ele>108</ele>
<time>2015-06-25T12:02:12Z</time>
</trkpt>
<trkpt lat="53.3317248" lon="18.4193954">
<ele>108</ele>
<time>2015-06-25T12:02:14Z</time>
</trkpt>
<trkpt lat="53.3315605" lon="18.4194346">
<ele>108</ele>
<time>2015-06-25T12:02:16Z</time>
</trkpt>
<trkpt lat="53.3313742" lon="18.4194467">
<ele>109</ele>
<time>2015-06-25T12:02:18Z</time>
</trkpt>
<trkpt lat="53.3311742" lon="18.4194743">
<ele>110</ele>
<time>2015-06-25T12:02:20Z</time>
</trkpt>
<trkpt lat="53.3309839" lon="18.4194903">
<ele>113</ele>
<time>2015-06-25T12:02:22Z</time>
</trkpt>
<trkpt lat="53.3307961" lon="18.4195178">
<ele>113</ele>
<time>2015-06-25T12:02:24Z</time>
</trkpt>
<trkpt lat="53.3305982" lon="18.4195504">
<ele>116</ele>
<time>2015-06-25T12:02:26Z</time>
</trkpt>
<trkpt lat="53.3304073" lon="18.4195968">
<ele>116</ele>
<time>2015-06-25T12:02:28Z</time>
</trkpt>
<trkpt lat="53.3302431" lon="18.4196384">
<ele>115</ele>
<time>2015-06-25T12:02:30Z</time>
</trkpt>
<trkpt lat="53.3300580" lon="18.4196742">
<ele>115</ele>
<time>2015-06-25T12:02:32Z</time>
</trkpt>
<trkpt lat="53.3298824" lon="18.4197291">
<ele>117</ele>
<time>2015-06-25T12:02:34Z</time>
</trkpt>
<trkpt lat="53.3297093" lon="18.4197649">
<ele>117</ele>
<time>2015-06-25T12:02:36Z</time>
</trkpt>
<trkpt lat="53.3295623" lon="18.4197900">
<ele>116</ele>
<time>2015-06-25T12:02:38Z</time>
</trkpt>
<trkpt lat="53.3294167" lon="18.4198038">
<ele>116</ele>
<time>2015-06-25T12:02:40Z</time>
</trkpt>
<trkpt lat="53.3292587" lon="18.4198336">
<ele>117</ele>
<time>2015-06-25T12:02:42Z</time>
</trkpt>
<trkpt lat="53.3291144" lon="18.4198556">
<ele>116</ele>
<time>2015-06-25T12:02:44Z</time>
</trkpt>
<trkpt lat="53.3290291" lon="18.4198739">
<ele>117</ele>
<time>2015-06-25T12:02:46Z</time>
</trkpt>
<trkpt lat="53.3289622" lon="18.4198851">
<ele>118</ele>
<time>2015-06-25T12:02:48Z</time>
</trkpt>
<trkpt lat="53.3289005" lon="18.4198766">
<ele>117</ele>
<time>2015-06-25T12:02:50Z</time>
</trkpt>
<trkpt lat="53.3288102" lon="18.4198187">
<ele>114</ele>
<time>2015-06-25T12:02:52Z</time>
</trkpt>
<trkpt lat="53.3287180" lon="18.4198386">
<ele>116</ele>
<time>2015-06-25T12:02:54Z</time>
</trkpt>
<trkpt lat="53.3286226" lon="18.4199435">
<ele>115</ele>
<time>2015-06-25T12:02:56Z</time>
</trkpt>
<trkpt lat="53.3285060" lon="18.4200086">
<ele>114</ele>
<time>2015-06-25T12:02:58Z</time>
</trkpt>
<trkpt lat="53.3283731" lon="18.4200391">
<ele>113</ele>
<time>2015-06-25T12:03:00Z</time>
</trkpt>
<trkpt lat="53.3282535" lon="18.4200790">
<ele>114</ele>
<time>2015-06-25T12:03:02Z</time>
</trkpt>
<trkpt lat="53.3281323" lon="18.4201112">
<ele>116</ele>
<time>2015-06-25T12:03:04Z</time>
</trkpt>
<trkpt lat="53.3280129" lon="18.4201384">
<ele>116</ele>
<time>2015-06-25T12:03:06Z</time>
</trkpt>
<trkpt lat="53.3278774" lon="18.4201596">
<ele>117</ele>
<time>2015-06-25T12:03:08Z</time>
</trkpt>
<trkpt lat="53.3277485" lon="18.4201934">
<ele>117</ele>
<time>2015-06-25T12:03:10Z</time>
</trkpt>
<trkpt lat="53.3275799" lon="18.4202174">
<ele>117</ele>
<time>2015-06-25T12:03:12Z</time>
</trkpt>
<trkpt lat="53.3274308" lon="18.4202162">
<ele>117</ele>
<time>2015-06-25T12:03:14Z</time>
</trkpt>
<trkpt lat="53.3272822" lon="18.4202638">
<ele>117</ele>
<time>2015-06-25T12:03:16Z</time>
</trkpt>
<trkpt lat="53.3270888" lon="18.4203332">
<ele>114</ele>
<time>2015-06-25T12:03:18Z</time>
</trkpt>
<trkpt lat="53.3268968" lon="18.4203932">
<ele>115</ele>
<time>2015-06-25T12:03:20Z</time>
</trkpt>
<trkpt lat="53.3267100" lon="18.4204245">
<ele>116</ele>
<time>2015-06-25T12:03:22Z</time>
</trkpt>
<trkpt lat="53.3265378" lon="18.4204743">
<ele>116</ele>
<time>2015-06-25T12:03:24Z</time>
</trkpt>
<trkpt lat="53.3261689" lon="18.4205375">
<ele>118</ele>
<time>2015-06-25T12:03:28Z</time>
</trkpt>
<trkpt lat="53.3260282" lon="18.4205468">
<ele>117</ele>
<time>2015-06-25T12:03:30Z</time>
</trkpt>
<trkpt lat="53.3259072" lon="18.4205516">
<ele>117</ele>
<time>2015-06-25T12:03:32Z</time>
</trkpt>
<trkpt lat="53.3258071" lon="18.4206048">
<ele>115</ele>
<time>2015-06-25T12:03:34Z</time>
</trkpt>
<trkpt lat="53.3257129" lon="18.4206342">
<ele>115</ele>
<time>2015-06-25T12:03:36Z</time>
</trkpt>
<trkpt lat="53.3256171" lon="18.4206549">
<ele>112</ele>
<time>2015-06-25T12:03:38Z</time>
</trkpt>
<trkpt lat="53.3254695" lon="18.4206707">
<ele>113</ele>
<time>2015-06-25T12:03:40Z</time>
</trkpt>
<trkpt lat="53.3252939" lon="18.4207000">
<ele>114</ele>
<time>2015-06-25T12:03:42Z</time>
</trkpt>
<trkpt lat="53.3251179" lon="18.4207129">
<ele>115</ele>
<time>2015-06-25T12:03:44Z</time>
</trkpt>
<trkpt lat="53.3249034" lon="18.4207439">
<ele>115</ele>
<time>2015-06-25T12:03:46Z</time>
</trkpt>
<trkpt lat="53.3246877" lon="18.4207860">
<ele>115</ele>
<time>2015-06-25T12:03:48Z</time>
</trkpt>
<trkpt lat="53.3244543" lon="18.4208366">
<ele>114</ele>
<time>2015-06-25T12:03:50Z</time>
</trkpt>
<trkpt lat="53.3241949" lon="18.4209008">
<ele>113</ele>
<time>2015-06-25T12:03:52Z</time>
</trkpt>
<trkpt lat="53.3239352" lon="18.4209669">
<ele>112</ele>
<time>2015-06-25T12:03:54Z</time>
</trkpt>
<trkpt lat="53.3236750" lon="18.4210165">
<ele>111</ele>
<time>2015-06-25T12:03:56Z</time>
</trkpt>
<trkpt lat="53.3234158" lon="18.4210829">
<ele>112</ele>
<time>2015-06-25T12:03:58Z</time>
</trkpt>
<trkpt lat="53.3231654" lon="18.4211357">
<ele>114</ele>
<time>2015-06-25T12:04:00Z</time>
</trkpt>
<trkpt lat="53.3229026" lon="18.4211757">
<ele>114</ele>
<time>2015-06-25T12:04:02Z</time>
</trkpt>
<trkpt lat="53.3226515" lon="18.4212417">
<ele>116</ele>
<time>2015-06-25T12:04:04Z</time>
</trkpt>
<trkpt lat="53.3221738" lon="18.4212806">
<ele>120</ele>
<time>2015-06-25T12:04:08Z</time>
</trkpt>
<trkpt lat="53.3219305" lon="18.4213220">
<ele>120</ele>
<time>2015-06-25T12:04:10Z</time>
</trkpt>
<trkpt lat="53.3217762" lon="18.4213048">
<ele>117</ele>
<time>2015-06-25T12:04:12Z</time>
</trkpt>
<trkpt lat="53.3215875" lon="18.4213677">
<ele>116</ele>
<time>2015-06-25T12:04:14Z</time>
</trkpt>
<trkpt lat="53.3213892" lon="18.4214465">
<ele>118</ele>
<time>2015-06-25T12:04:16Z</time>
</trkpt>
<trkpt lat="53.3211581" lon="18.4215200">
<ele>118</ele>
<time>2015-06-25T12:04:18Z</time>
</trkpt>
<trkpt lat="53.3209038" lon="18.4215786">
<ele>118</ele>
<time>2015-06-25T12:04:20Z</time>
</trkpt>
<trkpt lat="53.3206353" lon="18.4216433">
<ele>118</ele>
<time>2015-06-25T12:04:22Z</time>
</trkpt>
<trkpt lat="53.3203638" lon="18.4216932">
<ele>118</ele>
<time>2015-06-25T12:04:24Z</time>
</trkpt>
<trkpt lat="53.3201101" lon="18.4217353">
<ele>117</ele>
<time>2015-06-25T12:04:26Z</time>
</trkpt>
<trkpt lat="53.3198685" lon="18.421833">
<ele>116</ele>
<time>2015-06-25T12:04:28Z</time>
</trkpt>
<trkpt lat="53.3195894" lon="18.4218883">
<ele>115</ele>
<time>2015-06-25T12:04:30Z</time>
</trkpt>
<trkpt lat="53.3193280" lon="18.4219577">
<ele>116</ele>
<time>2015-06-25T12:04:32Z</time>
</trkpt>
<trkpt lat="53.3190458" lon="18.4220077">
<ele>116</ele>
<time>2015-06-25T12:04:34Z</time>
</trkpt>
<trkpt lat="53.3187601" lon="18.4220663">
<ele>116</ele>
<time>2015-06-25T12:04:36Z</time>
</trkpt>
<trkpt lat="53.3184644" lon="18.4221089">
<ele>115</ele>
<time>2015-06-25T12:04:38Z</time>
</trkpt>
<trkpt lat="53.3181498" lon="18.4221697">
<ele>116</ele>
<time>2015-06-25T12:04:40Z</time>
</trkpt>
<trkpt lat="53.3178530" lon="18.4222479">
<ele>115</ele>
<time>2015-06-25T12:04:42Z</time>
</trkpt>
<trkpt lat="53.3175808" lon="18.4223014">
<ele>114</ele>
<time>2015-06-25T12:04:44Z</time>
</trkpt>
<trkpt lat="53.3173053" lon="18.4223565">
<ele>113</ele>
<time>2015-06-25T12:04:46Z</time>
</trkpt>
<trkpt lat="53.3170542" lon="18.4223939">
<ele>113</ele>
<time>2015-06-25T12:04:48Z</time>
</trkpt>
<trkpt lat="53.3168071" lon="18.4224485">
<ele>113</ele>
<time>2015-06-25T12:04:50Z</time>
</trkpt>
<trkpt lat="53.3165671" lon="18.4224974">
<ele>112</ele>
<time>2015-06-25T12:04:52Z</time>
</trkpt>
<trkpt lat="53.3163273" lon="18.4225499">
<ele>112</ele>
<time>2015-06-25T12:04:54Z</time>
</trkpt>
<trkpt lat="53.3160998" lon="18.4225820">
<ele>111</ele>
<time>2015-06-25T12:04:56Z</time>
</trkpt>
<trkpt lat="53.3158636" lon="18.4226219">
<ele>111</ele>
<time>2015-06-25T12:04:58Z</time>
</trkpt>
<trkpt lat="53.3156121" lon="18.4226716">
<ele>112</ele>
<time>2015-06-25T12:05:00Z</time>
</trkpt>
<trkpt lat="53.3153543" lon="18.4227300">
<ele>113</ele>
<time>2015-06-25T12:05:02Z</time>
</trkpt>
<trkpt lat="53.3150973" lon="18.4227925">
<ele>114</ele>
<time>2015-06-25T12:05:04Z</time>
</trkpt>
<trkpt lat="53.3148454" lon="18.4228205">
<ele>115</ele>
<time>2015-06-25T12:05:06Z</time>
</trkpt>
<trkpt lat="53.3146086" lon="18.4228511">
<ele>116</ele>
<time>2015-06-25T12:05:08Z</time>
</trkpt>
<trkpt lat="53.3143582" lon="18.4229052">
<ele>116</ele>
<time>2015-06-25T12:05:10Z</time>
</trkpt>
<trkpt lat="53.3141049" lon="18.4229616">
<ele>115</ele>
<time>2015-06-25T12:05:12Z</time>
</trkpt>
<trkpt lat="53.3138483" lon="18.4230219">
<ele>114</ele>
<time>2015-06-25T12:05:14Z</time>
</trkpt>
<trkpt lat="53.3136029" lon="18.4230481">
<ele>115</ele>
<time>2015-06-25T12:05:16Z</time>
</trkpt>
<trkpt lat="53.3133376" lon="18.4230843">
<ele>115</ele>
<time>2015-06-25T12:05:18Z</time>
</trkpt>
<trkpt lat="53.3131348" lon="18.4231569">
<ele>113</ele>
<time>2015-06-25T12:05:20Z</time>
</trkpt>
<trkpt lat="53.3129635" lon="18.4231978">
<ele>112</ele>
<time>2015-06-25T12:05:22Z</time>
</trkpt>
<trkpt lat="53.3125533" lon="18.4232606">
<ele>111</ele>
<time>2015-06-25T12:05:26Z</time>
</trkpt>
<trkpt lat="53.3123051" lon="18.4233389">
<ele>110</ele>
<time>2015-06-25T12:05:28Z</time>
</trkpt>
<trkpt lat="53.3120525" lon="18.4233794">
<ele>109</ele>
<time>2015-06-25T12:05:30Z</time>
</trkpt>
<trkpt lat="53.3117710" lon="18.4234297">
<ele>110</ele>
<time>2015-06-25T12:05:32Z</time>
</trkpt>
<trkpt lat="53.3111725" lon="18.4235700">
<ele>108</ele>
<time>2015-06-25T12:05:36Z</time>
</trkpt>
<trkpt lat="53.3108735" lon="18.4236306">
<ele>109</ele>
<time>2015-06-25T12:05:38Z</time>
</trkpt>
<trkpt lat="53.3105627" lon="18.4236970">
<ele>109</ele>
<time>2015-06-25T12:05:40Z</time>
</trkpt>
<trkpt lat="53.3102112" lon="18.4237705">
<ele>110</ele>
<time>2015-06-25T12:05:42Z</time>
</trkpt>
<trkpt lat="53.3098197" lon="18.4238479">
<ele>111</ele>
<time>2015-06-25T12:05:44Z</time>
</trkpt>
<trkpt lat="53.3093861" lon="18.4239373">
<ele>112</ele>
<time>2015-06-25T12:05:46Z</time>
</trkpt>
<trkpt lat="53.3084385" lon="18.4241071">
<ele>109</ele>
<time>2015-06-25T12:05:50Z</time>
</trkpt>
<trkpt lat="53.3080343" lon="18.4241885">
<ele>109</ele>
<time>2015-06-25T12:05:52Z</time>
</trkpt>
<trkpt lat="53.3076802" lon="18.4242525">
<ele>110</ele>
<time>2015-06-25T12:05:54Z</time>
</trkpt>
<trkpt lat="53.3073650" lon="18.4243119">
<ele>112</ele>
<time>2015-06-25T12:05:56Z</time>
</trkpt>
<trkpt lat="53.3070693" lon="18.4243550">
<ele>111</ele>
<time>2015-06-25T12:05:58Z</time>
</trkpt>
<trkpt lat="53.3067599" lon="18.4244183">
<ele>111</ele>
<time>2015-06-25T12:06:00Z</time>
</trkpt>
<trkpt lat="53.3064505" lon="18.4244960">
<ele>110</ele>
<time>2015-06-25T12:06:02Z</time>
</trkpt>
<trkpt lat="53.3061631" lon="18.4245479">
<ele>110</ele>
<time>2015-06-25T12:06:04Z</time>
</trkpt>
<trkpt lat="53.3058538" lon="18.4246126">
<ele>111</ele>
<time>2015-06-25T12:06:06Z</time>
</trkpt>
<trkpt lat="53.3055555" lon="18.4246519">
<ele>110</ele>
<time>2015-06-25T12:06:08Z</time>
</trkpt>
<trkpt lat="53.3052517" lon="18.4246713">
<ele>111</ele>
<time>2015-06-25T12:06:10Z</time>
</trkpt>
<trkpt lat="53.3049535" lon="18.4246789">
<ele>111</ele>
<time>2015-06-25T12:06:12Z</time>
</trkpt>
<trkpt lat="53.3046646" lon="18.4246941">
<ele>112</ele>
<time>2015-06-25T12:06:14Z</time>
</trkpt>
<trkpt lat="53.30438" lon="18.4247077">
<ele>112</ele>
<time>2015-06-25T12:06:16Z</time>
</trkpt>
<trkpt lat="53.3041386" lon="18.4247073">
<ele>113</ele>
<time>2015-06-25T12:06:18Z</time>
</trkpt>
<trkpt lat="53.3038746" lon="18.4247105">
<ele>113</ele>
<time>2015-06-25T12:06:20Z</time>
</trkpt>
<trkpt lat="53.3035992" lon="18.4247332">
<ele>113</ele>
<time>2015-06-25T12:06:22Z</time>
</trkpt>
<trkpt lat="53.3033488" lon="18.4247523">
<ele>115</ele>
<time>2015-06-25T12:06:24Z</time>
</trkpt>
<trkpt lat="53.3031194" lon="18.4247587">
<ele>116</ele>
<time>2015-06-25T12:06:26Z</time>
</trkpt>
<trkpt lat="53.3028555" lon="18.4247605">
<ele>116</ele>
<time>2015-06-25T12:06:28Z</time>
</trkpt>
<trkpt lat="53.3025751" lon="18.4247806">
<ele>115</ele>
<time>2015-06-25T12:06:30Z</time>
</trkpt>
<trkpt lat="53.3022994" lon="18.4248113">
<ele>116</ele>
<time>2015-06-25T12:06:32Z</time>
</trkpt>
<trkpt lat="53.3020122" lon="18.4248272">
<ele>115</ele>
<time>2015-06-25T12:06:34Z</time>
</trkpt>
<trkpt lat="53.3017291" lon="18.4248382">
<ele>116</ele>
<time>2015-06-25T12:06:36Z</time>
</trkpt>
<trkpt lat="53.3014677" lon="18.4248616">
<ele>116</ele>
<time>2015-06-25T12:06:38Z</time>
</trkpt>
<trkpt lat="53.3012263" lon="18.4248907">
<ele>115</ele>
<time>2015-06-25T12:06:40Z</time>
</trkpt>
<trkpt lat="53.3010116" lon="18.4249513">
<ele>115</ele>
<time>2015-06-25T12:06:42Z</time>
</trkpt>
<trkpt lat="53.3008022" lon="18.4250465">
<ele>114</ele>
<time>2015-06-25T12:06:44Z</time>
</trkpt>
<trkpt lat="53.3005659" lon="18.4251692">
<ele>113</ele>
<time>2015-06-25T12:06:46Z</time>
</trkpt>
<trkpt lat="53.3003683" lon="18.4252982">
<ele>113</ele>
<time>2015-06-25T12:06:48Z</time>
</trkpt>
<trkpt lat="53.3002199" lon="18.4253898">
<ele>114</ele>
<time>2015-06-25T12:06:50Z</time>
</trkpt>
<trkpt lat="53.3000895" lon="18.4254521">
<ele>114</ele>
<time>2015-06-25T12:06:52Z</time>
</trkpt>
<trkpt lat="53.3000080" lon="18.4254912">
<ele>116</ele>
<time>2015-06-25T12:06:54Z</time>
</trkpt>
<trkpt lat="53.2999090" lon="18.4255581">
<ele>117</ele>
<time>2015-06-25T12:06:56Z</time>
</trkpt>
<trkpt lat="53.2998532" lon="18.4255869">
<ele>117</ele>
<time>2015-06-25T12:06:58Z</time>
</trkpt>
<trkpt lat="53.2998356" lon="18.4255655">
<ele>116</ele>
<time>2015-06-25T12:07:00Z</time>
</trkpt>
<trkpt lat="53.2998098" lon="18.4255327">
<ele>114</ele>
<time>2015-06-25T12:07:02Z</time>
</trkpt>
<trkpt lat="53.2997949" lon="18.4254584">
<ele>114</ele>
<time>2015-06-25T12:07:04Z</time>
</trkpt>
<trkpt lat="53.2997956" lon="18.4253798">
<ele>116</ele>
<time>2015-06-25T12:07:06Z</time>
</trkpt>
<trkpt lat="53.2997970" lon="18.4252868">
<ele>114</ele>
<time>2015-06-25T12:07:08Z</time>
</trkpt>
<trkpt lat="53.2997976" lon="18.4251823">
<ele>114</ele>
<time>2015-06-25T12:07:10Z</time>
</trkpt>
<trkpt lat="53.2997972" lon="18.4250754">
<ele>114</ele>
<time>2015-06-25T12:07:12Z</time>
</trkpt>
<trkpt lat="53.2997904" lon="18.4249799">
<ele>115</ele>
<time>2015-06-25T12:07:14Z</time>
</trkpt>
<trkpt lat="53.2997841" lon="18.4248876">
<ele>115</ele>
<time>2015-06-25T12:07:16Z</time>
</trkpt>
<trkpt lat="53.2997752" lon="18.4247905">
<ele>115</ele>
<time>2015-06-25T12:07:18Z</time>
</trkpt>
<trkpt lat="53.2997707" lon="18.4246918">
<ele>115</ele>
<time>2015-06-25T12:07:20Z</time>
</trkpt>
<trkpt lat="53.2997723" lon="18.4246069">
<ele>117</ele>
<time>2015-06-25T12:07:22Z</time>
</trkpt>
<trkpt lat="53.2997761" lon="18.4245474">
<ele>118</ele>
<time>2015-06-25T12:07:24Z</time>
</trkpt>
<trkpt lat="53.2997829" lon="18.4244872">
<ele>118</ele>
<time>2015-06-25T12:07:26Z</time>
</trkpt>
<trkpt lat="53.2997913" lon="18.4244097">
<ele>116</ele>
<time>2015-06-25T12:07:28Z</time>
</trkpt>
<trkpt lat="53.2997900" lon="18.4243328">
<ele>116</ele>
<time>2015-06-25T12:07:30Z</time>
</trkpt>
<trkpt lat="53.2997752" lon="18.4242652">
<ele>116</ele>
<time>2015-06-25T12:07:32Z</time>
</trkpt>
<trkpt lat="53.2997630" lon="18.4242203">
<ele>115</ele>
<time>2015-06-25T12:07:34Z</time>
</trkpt>
<trkpt lat="53.2997643" lon="18.4241669">
<ele>115</ele>
<time>2015-06-25T12:07:36Z</time>
</trkpt>
<trkpt lat="53.2997752" lon="18.4241137">
<ele>115</ele>
<time>2015-06-25T12:07:38Z</time>
</trkpt>
<trkpt lat="53.2997839" lon="18.4240740">
<ele>115</ele>
<time>2015-06-25T12:07:40Z</time>
</trkpt>
<trkpt lat="53.2997796" lon="18.4240549">
<ele>114</ele>
<time>2015-06-25T12:07:42Z</time>
</trkpt>
<trkpt lat="53.2997683" lon="18.4240419">
<ele>115</ele>
<time>2015-06-25T12:07:44Z</time>
</trkpt>
<trkpt lat="53.2997638" lon="18.4240419">
<ele>115</ele>
<time>2015-06-25T12:07:46Z</time>
</trkpt>
<trkpt lat="53.2997583" lon="18.4240478">
<ele>116</ele>
<time>2015-06-25T12:07:49Z</time>
</trkpt>
<trkpt lat="53.2997582" lon="18.4240506">
<ele>116</ele>
<time>2015-06-25T12:07:52Z</time>
</trkpt>
<trkpt lat="53.2997589" lon="18.4240486">
<ele>115</ele>
<time>2015-06-25T12:07:54Z</time>
</trkpt>
<trkpt lat="53.2997734" lon="18.4240424">
<ele>119</ele>
<time>2015-06-25T12:07:56Z</time>
</trkpt>
<trkpt lat="53.2997733" lon="18.4240452">
<ele>119</ele>
<time>2015-06-25T12:07:58Z</time>
</trkpt>
<trkpt lat="53.2997749" lon="18.4240470">
<ele>119</ele>
<time>2015-06-25T12:08:00Z</time>
</trkpt>
<trkpt lat="53.2997790" lon="18.4240499">
<ele>120</ele>
<time>2015-06-25T12:08:02Z</time>
</trkpt>
<trkpt lat="53.2997794" lon="18.4240488">
<ele>121</ele>
<time>2015-06-25T12:08:04Z</time>
</trkpt>
<trkpt lat="53.2997776" lon="18.4240487">
<ele>121</ele>
<time>2015-06-25T12:08:08Z</time>
</trkpt>
<trkpt lat="53.2997775" lon="18.4240490">
<ele>121</ele>
<time>2015-06-25T12:08:10Z</time>
</trkpt>
<trkpt lat="53.2997773" lon="18.4240493">
<ele>121</ele>
<time>2015-06-25T12:08:12Z</time>
</trkpt>
<trkpt lat="53.2997773" lon="18.4240498">
<ele>121</ele>
<time>2015-06-25T12:08:14Z</time>
</trkpt>
<trkpt lat="53.2997773" lon="18.4240501">
<ele>121</ele>
<time>2015-06-25T12:08:16Z</time>
</trkpt>
<trkpt lat="53.2997772" lon="18.4240503">
<ele>121</ele>
<time>2015-06-25T12:08:18Z</time>
</trkpt>
<trkpt lat="53.2997772" lon="18.4240503">
<ele>121</ele>
<time>2015-06-25T12:08:20Z</time>
</trkpt>
<trkpt lat="53.2997771" lon="18.4240503">
<ele>121</ele>
<time>2015-06-25T12:08:24Z</time>
</trkpt>
<trkpt lat="53.2997770" lon="18.4240503">
<ele>121</ele>
<time>2015-06-25T12:08:28Z</time>
</trkpt>
<trkpt lat="53.2997770" lon="18.4240503">
<ele>121</ele>
<time>2015-06-25T12:08:30Z</time>
</trkpt>
<trkpt lat="53.2997770" lon="18.4240503">
<ele>121</ele>
<time>2015-06-25T12:08:32Z</time>
</trkpt>
<trkpt lat="53.2997770" lon="18.4240503">
<ele>121</ele>
<time>2015-06-25T12:08:36Z</time>
</trkpt>
<trkpt lat="53.2997771" lon="18.4240503">
<ele>121</ele>
<time>2015-06-25T12:08:38Z</time>
</trkpt>
<trkpt lat="53.2997770" lon="18.4240504">
<ele>121</ele>
<time>2015-06-25T12:08:42Z</time>
</trkpt>
<trkpt lat="53.2997770" lon="18.4240504">
<ele>121</ele>
<time>2015-06-25T12:08:46Z</time>
</trkpt>
<trkpt lat="53.2997770" lon="18.4240504">
<ele>121</ele>
<time>2015-06-25T12:08:50Z</time>
</trkpt>
<trkpt lat="53.2997771" lon="18.4240504">
<ele>121</ele>
<time>2015-06-25T12:08:52Z</time>
</trkpt>
<trkpt lat="53.2997771" lon="18.4240504">
<ele>121</ele>
<time>2015-06-25T12:08:54Z</time>
</trkpt>
<trkpt lat="53.2997771" lon="18.4240504">
<ele>121</ele>
<time>2015-06-25T12:08:56Z</time>
</trkpt>
<trkpt lat="53.2997772" lon="18.4240505">
<ele>121</ele>
<time>2015-06-25T12:08:58Z</time>
</trkpt>
<trkpt lat="53.2997773" lon="18.4240504">
<ele>121</ele>
<time>2015-06-25T12:09:00Z</time>
</trkpt>
<trkpt lat="53.2997773" lon="18.4240505">
<ele>121</ele>
<time>2015-06-25T12:09:02Z</time>
</trkpt>
<trkpt lat="53.2997774" lon="18.4240505">
<ele>121</ele>
<time>2015-06-25T12:09:04Z</time>
</trkpt>
<trkpt lat="53.2997774" lon="18.4240505">
<ele>121</ele>
<time>2015-06-25T12:09:06Z</time>
</trkpt>
<trkpt lat="53.2997773" lon="18.4240506">
<ele>121</ele>
<time>2015-06-25T12:09:08Z</time>
</trkpt>
<trkpt lat="53.2997773" lon="18.4240506">
<ele>121</ele>
<time>2015-06-25T12:09:10Z</time>
</trkpt>
<trkpt lat="53.2997774" lon="18.4240507">
<ele>121</ele>
<time>2015-06-25T12:09:12Z</time>
</trkpt>
<trkpt lat="53.2997773" lon="18.4240507">
<ele>121</ele>
<time>2015-06-25T12:09:14Z</time>
</trkpt>
<trkpt lat="53.2997773" lon="18.4240506">
<ele>121</ele>
<time>2015-06-25T12:09:16Z</time>
</trkpt>
<trkpt lat="53.2997773" lon="18.4240506">
<ele>121</ele>
<time>2015-06-25T12:09:18Z</time>
</trkpt>
<trkpt lat="53.2997773" lon="18.4240507">
<ele>121</ele>
<time>2015-06-25T12:09:20Z</time>
</trkpt>
<trkpt lat="53.2997773" lon="18.4240508">
<ele>121</ele>
<time>2015-06-25T12:09:22Z</time>
</trkpt>
<trkpt lat="53.2997772" lon="18.4240507">
<ele>121</ele>
<time>2015-06-25T12:09:24Z</time>
</trkpt>
<trkpt lat="53.2997772" lon="18.4240507">
<ele>121</ele>
<time>2015-06-25T12:09:26Z</time>
</trkpt>
<trkpt lat="53.2997772" lon="18.4240507">
<ele>121</ele>
<time>2015-06-25T12:09:28Z</time>
</trkpt>
<trkpt lat="53.2997772" lon="18.4240507">
<ele>121</ele>
<time>2015-06-25T12:09:30Z</time>
</trkpt>
<trkpt lat="53.2997771" lon="18.4240508">
<ele>121</ele>
<time>2015-06-25T12:09:32Z</time>
</trkpt>
<trkpt lat="53.2997793" lon="18.4240508">
<ele>121</ele>
<time>2015-06-25T12:09:34Z</time>
</trkpt>
<trkpt lat="53.2997838" lon="18.4240622">
<ele>121</ele>
<time>2015-06-25T12:09:36Z</time>
</trkpt>
<trkpt lat="53.2997847" lon="18.4240716">
<ele>121</ele>
<time>2015-06-25T12:09:38Z</time>
</trkpt>
<trkpt lat="53.2997869" lon="18.4240714">
<ele>121</ele>
<time>2015-06-25T12:09:40Z</time>
</trkpt>
<trkpt lat="53.2997888" lon="18.4240755">
<ele>121</ele>
<time>2015-06-25T12:09:42Z</time>
</trkpt>
<trkpt lat="53.2997904" lon="18.4240767">
<ele>121</ele>
<time>2015-06-25T12:09:44Z</time>
</trkpt>
<trkpt lat="53.2997909" lon="18.4240787">
<ele>121</ele>
<time>2015-06-25T12:09:46Z</time>
</trkpt>
<trkpt lat="53.2997912" lon="18.4240786">
<ele>121</ele>
<time>2015-06-25T12:09:48Z</time>
</trkpt>
<trkpt lat="53.2997915" lon="18.4240785">
<ele>121</ele>
<time>2015-06-25T12:09:50Z</time>
</trkpt>
<trkpt lat="53.2997915" lon="18.4240788">
<ele>121</ele>
<time>2015-06-25T12:09:52Z</time>
</trkpt>
<trkpt lat="53.2997915" lon="18.4240792">
<ele>121</ele>
<time>2015-06-25T12:09:54Z</time>
</trkpt>
<trkpt lat="53.2997916" lon="18.4240793">
<ele>121</ele>
<time>2015-06-25T12:09:56Z</time>
</trkpt>
<trkpt lat="53.2997915" lon="18.4240795">
<ele>121</ele>
<time>2015-06-25T12:09:58Z</time>
</trkpt>
<trkpt lat="53.2997914" lon="18.4240796">
<ele>121</ele>
<time>2015-06-25T12:10:00Z</time>
</trkpt>
<trkpt lat="53.2997913" lon="18.4240799">
<ele>121</ele>
<time>2015-06-25T12:10:02Z</time>
</trkpt>
<trkpt lat="53.2997912" lon="18.4240802">
<ele>121</ele>
<time>2015-06-25T12:10:04Z</time>
</trkpt>
<trkpt lat="53.2997911" lon="18.4240805">
<ele>121</ele>
<time>2015-06-25T12:10:06Z</time>
</trkpt>
<trkpt lat="53.2997910" lon="18.4240807">
<ele>121</ele>
<time>2015-06-25T12:10:08Z</time>
</trkpt>
<trkpt lat="53.299791" lon="18.4240808">
<ele>121</ele>
<time>2015-06-25T12:10:10Z</time>
</trkpt>
<trkpt lat="53.2997909" lon="18.4240809">
<ele>121</ele>
<time>2015-06-25T12:10:12Z</time>
</trkpt>
<trkpt lat="53.2997909" lon="18.4240809">
<ele>121</ele>
<time>2015-06-25T12:10:14Z</time>
</trkpt>
<trkpt lat="53.2997909" lon="18.4240809">
<ele>121</ele>
<time>2015-06-25T12:10:16Z</time>
</trkpt>
<trkpt lat="53.2997909" lon="18.4240809">
<ele>121</ele>
<time>2015-06-25T12:10:18Z</time>
</trkpt>
<trkpt lat="53.2997909" lon="18.4240809">
<ele>121</ele>
<time>2015-06-25T12:10:20Z</time>
</trkpt>
<trkpt lat="53.2997909" lon="18.4240808">
<ele>121</ele>
<time>2015-06-25T12:10:22Z</time>
</trkpt>
<trkpt lat="53.2997907" lon="18.4240814">
<ele>121</ele>
<time>2015-06-25T12:10:24Z</time>
</trkpt>
<trkpt lat="53.2997903" lon="18.4240635">
<ele>120</ele>
<time>2015-06-25T12:10:26Z</time>
</trkpt>
<trkpt lat="53.2997881" lon="18.4240692">
<ele>121</ele>
<time>2015-06-25T12:10:28Z</time>
</trkpt>
<trkpt lat="53.2997923" lon="18.4240695">
<ele>120</ele>
<time>2015-06-25T12:10:30Z</time>
</trkpt>
<trkpt lat="53.2997954" lon="18.4240731">
<ele>121</ele>
<time>2015-06-25T12:10:32Z</time>
</trkpt>
<trkpt lat="53.2997926" lon="18.4240777">
<ele>121</ele>
<time>2015-06-25T12:10:34Z</time>
</trkpt>
<trkpt lat="53.2997905" lon="18.4240789">
<ele>121</ele>
<time>2015-06-25T12:10:36Z</time>
</trkpt>
<trkpt lat="53.2997908" lon="18.4240788">
<ele>121</ele>
<time>2015-06-25T12:10:38Z</time>
</trkpt>
<trkpt lat="53.2997911" lon="18.4240792">
<ele>121</ele>
<time>2015-06-25T12:10:40Z</time>
</trkpt>
<trkpt lat="53.2997909" lon="18.4240866">
<ele>123</ele>
<time>2015-06-25T12:10:44Z</time>
</trkpt>
<trkpt lat="53.2997918" lon="18.4240884">
<ele>124</ele>
<time>2015-06-25T12:10:46Z</time>
</trkpt>
<trkpt lat="53.2997908" lon="18.4240923">
<ele>123</ele>
<time>2015-06-25T12:10:48Z</time>
</trkpt>
<trkpt lat="53.2997882" lon="18.4240983">
<ele>124</ele>
<time>2015-06-25T12:10:50Z</time>
</trkpt>
<trkpt lat="53.2997881" lon="18.4241046">
<ele>124</ele>
<time>2015-06-25T12:10:52Z</time>
</trkpt>
<trkpt lat="53.2997879" lon="18.4241035">
<ele>124</ele>
<time>2015-06-25T12:10:54Z</time>
</trkpt>
<trkpt lat="53.2997878" lon="18.4241020">
<ele>124</ele>
<time>2015-06-25T12:10:56Z</time>
</trkpt>
<trkpt lat="53.2997878" lon="18.4241018">
<ele>124</ele>
<time>2015-06-25T12:10:58Z</time>
</trkpt>
<trkpt lat="53.2997879" lon="18.4241015">
<ele>124</ele>
<time>2015-06-25T12:11:00Z</time>
</trkpt>
<trkpt lat="53.2997879" lon="18.4241014">
<ele>124</ele>
<time>2015-06-25T12:11:02Z</time>
</trkpt>
<trkpt lat="53.2997879" lon="18.4241013">
<ele>124</ele>
<time>2015-06-25T12:11:04Z</time>
</trkpt>
<trkpt lat="53.2997879" lon="18.4241012">
<ele>124</ele>
<time>2015-06-25T12:11:06Z</time>
</trkpt>
<trkpt lat="53.2997879" lon="18.4241012">
<ele>124</ele>
<time>2015-06-25T12:11:08Z</time>
</trkpt>
<trkpt lat="53.2997878" lon="18.4241012">
<ele>124</ele>
<time>2015-06-25T12:11:10Z</time>
</trkpt>
<trkpt lat="53.2997878" lon="18.4241012">
<ele>124</ele>
<time>2015-06-25T12:11:12Z</time>
</trkpt>
<trkpt lat="53.2997878" lon="18.4241012">
<ele>124</ele>
<time>2015-06-25T12:11:14Z</time>
</trkpt>
<trkpt lat="53.2997878" lon="18.4241012">
<ele>124</ele>
<time>2015-06-25T12:11:16Z</time>
</trkpt>
<trkpt lat="53.2997878" lon="18.4241012">
<ele>124</ele>
<time>2015-06-25T12:11:20Z</time>
</trkpt>
<trkpt lat="53.2997878" lon="18.4241012">
<ele>124</ele>
<time>2015-06-25T12:11:22Z</time>
</trkpt>
<trkpt lat="53.2997878" lon="18.4241011">
<ele>124</ele>
<time>2015-06-25T12:11:24Z</time>
</trkpt>
<trkpt lat="53.2997878" lon="18.4241011">
<ele>124</ele>
<time>2015-06-25T12:11:26Z</time>
</trkpt>
<trkpt lat="53.2997878" lon="18.4241010">
<ele>124</ele>
<time>2015-06-25T12:11:28Z</time>
</trkpt>
<trkpt lat="53.2997878" lon="18.4241010">
<ele>124</ele>
<time>2015-06-25T12:11:30Z</time>
</trkpt>
<trkpt lat="53.2997879" lon="18.4241009">
<ele>124</ele>
<time>2015-06-25T12:11:32Z</time>
</trkpt>
<trkpt lat="53.2997879" lon="18.4241009">
<ele>124</ele>
<time>2015-06-25T12:11:34Z</time>
</trkpt>
<trkpt lat="53.2997879" lon="18.4241010">
<ele>124</ele>
<time>2015-06-25T12:11:36Z</time>
</trkpt>
<trkpt lat="53.2997879" lon="18.4241011">
<ele>124</ele>
<time>2015-06-25T12:11:38Z</time>
</trkpt>
<trkpt lat="53.2997879" lon="18.4241011">
<ele>124</ele>
<time>2015-06-25T12:11:40Z</time>
</trkpt>
<trkpt lat="53.2997879" lon="18.4241012">
<ele>124</ele>
<time>2015-06-25T12:11:42Z</time>
</trkpt>
<trkpt lat="53.2997879" lon="18.4241012">
<ele>124</ele>
<time>2015-06-25T12:11:44Z</time>
</trkpt>
<trkpt lat="53.2997879" lon="18.4241012">
<ele>124</ele>
<time>2015-06-25T12:11:46Z</time>
</trkpt>
<trkpt lat="53.2997879" lon="18.4241011">
<ele>124</ele>
<time>2015-06-25T12:11:48Z</time>
</trkpt>
<trkpt lat="53.2997879" lon="18.4241011">
<ele>124</ele>
<time>2015-06-25T12:11:50Z</time>
</trkpt>
<trkpt lat="53.2997878" lon="18.4241011">
<ele>124</ele>
<time>2015-06-25T12:11:52Z</time>
</trkpt>
<trkpt lat="53.2997880" lon="18.4241017">
<ele>125</ele>
<time>2015-06-25T12:11:54Z</time>
</trkpt>
<trkpt lat="53.2997868" lon="18.4240948">
<ele>124</ele>
<time>2015-06-25T12:11:56Z</time>
</trkpt>
<trkpt lat="53.2997890" lon="18.4240917">
<ele>124</ele>
<time>2015-06-25T12:11:58Z</time>
</trkpt>
<trkpt lat="53.2997900" lon="18.4240890">
<ele>125</ele>
<time>2015-06-25T12:12:00Z</time>
</trkpt>
<trkpt lat="53.2997885" lon="18.4240880">
<ele>125</ele>
<time>2015-06-25T12:12:02Z</time>
</trkpt>
<trkpt lat="53.2997878" lon="18.4240877">
<ele>125</ele>
<time>2015-06-25T12:12:04Z</time>
</trkpt>
<trkpt lat="53.2997848" lon="18.4240870">
<ele>125</ele>
<time>2015-06-25T12:12:08Z</time>
</trkpt>
<trkpt lat="53.2997842" lon="18.4240861">
<ele>125</ele>
<time>2015-06-25T12:12:12Z</time>
</trkpt>
<trkpt lat="53.2997843" lon="18.4240874">
<ele>125</ele>
<time>2015-06-25T12:12:14Z</time>
</trkpt>
<trkpt lat="53.2997840" lon="18.4240845">
<ele>125</ele>
<time>2015-06-25T12:12:16Z</time>
</trkpt>
<trkpt lat="53.2997843" lon="18.4240820">
<ele>125</ele>
<time>2015-06-25T12:12:18Z</time>
</trkpt>
<trkpt lat="53.2997817" lon="18.4240746">
<ele>125</ele>
<time>2015-06-25T12:12:22Z</time>
</trkpt>
<trkpt lat="53.2997810" lon="18.4240727">
<ele>125</ele>
<time>2015-06-25T12:12:24Z</time>
</trkpt>
<trkpt lat="53.2997808" lon="18.4240732">
<ele>125</ele>
<time>2015-06-25T12:12:26Z</time>
</trkpt>
<trkpt lat="53.2997841" lon="18.4240703">
<ele>124</ele>
<time>2015-06-25T12:12:28Z</time>
</trkpt>
<trkpt lat="53.2997843" lon="18.4240701">
<ele>124</ele>
<time>2015-06-25T12:12:30Z</time>
</trkpt>
<trkpt lat="53.2997862" lon="18.4240681">
<ele>124</ele>
<time>2015-06-25T12:12:32Z</time>
</trkpt>
<trkpt lat="53.2997889" lon="18.4240637">
<ele>124</ele>
<time>2015-06-25T12:12:34Z</time>
</trkpt>
<trkpt lat="53.2997885" lon="18.4240591">
<ele>124</ele>
<time>2015-06-25T12:12:36Z</time>
</trkpt>
<trkpt lat="53.2997853" lon="18.4240545">
<ele>124</ele>
<time>2015-06-25T12:12:38Z</time>
</trkpt>
<trkpt lat="53.2997836" lon="18.424052">
<ele>123</ele>
<time>2015-06-25T12:12:40Z</time>
</trkpt>
<trkpt lat="53.2997832" lon="18.4240526">
<ele>124</ele>
<time>2015-06-25T12:12:42Z</time>
</trkpt>
<trkpt lat="53.2997835" lon="18.4240509">
<ele>123</ele>
<time>2015-06-25T12:12:44Z</time>
</trkpt>
<trkpt lat="53.2997821" lon="18.4240488">
<ele>123</ele>
<time>2015-06-25T12:12:46Z</time>
</trkpt>
<trkpt lat="53.2997806" lon="18.4240498">
<ele>124</ele>
<time>2015-06-25T12:12:48Z</time>
</trkpt>
<trkpt lat="53.2997790" lon="18.4240519">
<ele>124</ele>
<time>2015-06-25T12:12:50Z</time>
</trkpt>
<trkpt lat="53.2997764" lon="18.4240537">
<ele>124</ele>
<time>2015-06-25T12:12:52Z</time>
</trkpt>
<trkpt lat="53.2997749" lon="18.4240537">
<ele>124</ele>
<time>2015-06-25T12:12:54Z</time>
</trkpt>
<trkpt lat="53.2997745" lon="18.4240535">
<ele>124</ele>
<time>2015-06-25T12:12:56Z</time>
</trkpt>
<trkpt lat="53.2997743" lon="18.4240535">
<ele>124</ele>
<time>2015-06-25T12:12:58Z</time>
</trkpt>
<trkpt lat="53.2997743" lon="18.4240535">
<ele>124</ele>
<time>2015-06-25T12:13:00Z</time>
</trkpt>
<trkpt lat="53.2997744" lon="18.4240535">
<ele>124</ele>
<time>2015-06-25T12:13:02Z</time>
</trkpt>
<trkpt lat="53.2997744" lon="18.4240535">
<ele>124</ele>
<time>2015-06-25T12:13:04Z</time>
</trkpt>
<trkpt lat="53.2997744" lon="18.4240535">
<ele>124</ele>
<time>2015-06-25T12:13:06Z</time>
</trkpt>
<trkpt lat="53.2997745" lon="18.4240535">
<ele>124</ele>
<time>2015-06-25T12:13:08Z</time>
</trkpt>
<trkpt lat="53.2997745" lon="18.4240535">
<ele>124</ele>
<time>2015-06-25T12:13:10Z</time>
</trkpt>
<trkpt lat="53.2997745" lon="18.4240535">
<ele>124</ele>
<time>2015-06-25T12:13:12Z</time>
</trkpt>
<trkpt lat="53.2997745" lon="18.4240535">
<ele>124</ele>
<time>2015-06-25T12:13:14Z</time>
</trkpt>
<trkpt lat="53.2997745" lon="18.4240535">
<ele>124</ele>
<time>2015-06-25T12:13:16Z</time>
</trkpt>
<trkpt lat="53.2997745" lon="18.4240535">
<ele>124</ele>
<time>2015-06-25T12:13:18Z</time>
</trkpt>
<trkpt lat="53.2997745" lon="18.4240535">
<ele>124</ele>
<time>2015-06-25T12:13:20Z</time>
</trkpt>
<trkpt lat="53.2997732" lon="18.4240553">
<ele>123</ele>
<time>2015-06-25T12:13:24Z</time>
</trkpt>
<trkpt lat="53.2997761" lon="18.4240553">
<ele>123</ele>
<time>2015-06-25T12:13:26Z</time>
</trkpt>
<trkpt lat="53.2997714" lon="18.4240543">
<ele>122</ele>
<time>2015-06-25T12:13:28Z</time>
</trkpt>
<trkpt lat="53.2997709" lon="18.4240557">
<ele>122</ele>
<time>2015-06-25T12:13:30Z</time>
</trkpt>
<trkpt lat="53.2997721" lon="18.4240568">
<ele>123</ele>
<time>2015-06-25T12:13:32Z</time>
</trkpt>
<trkpt lat="53.2997716" lon="18.4240573">
<ele>122</ele>
<time>2015-06-25T12:13:34Z</time>
</trkpt>
<trkpt lat="53.2997697" lon="18.4240559">
<ele>122</ele>
<time>2015-06-25T12:13:36Z</time>
</trkpt>
<trkpt lat="53.2997673" lon="18.4240529">
<ele>122</ele>
<time>2015-06-25T12:13:38Z</time>
</trkpt>
<trkpt lat="53.2997665" lon="18.4240544">
<ele>122</ele>
<time>2015-06-25T12:13:40Z</time>
</trkpt>
<trkpt lat="53.2997670" lon="18.4240550">
<ele>123</ele>
<time>2015-06-25T12:13:42Z</time>
</trkpt>
<trkpt lat="53.2997664" lon="18.4240536">
<ele>122</ele>
<time>2015-06-25T12:13:44Z</time>
</trkpt>
<trkpt lat="53.2997725" lon="18.4240473">
<ele>123</ele>
<time>2015-06-25T12:13:48Z</time>
</trkpt>
<trkpt lat="53.2997729" lon="18.4240471">
<ele>123</ele>
<time>2015-06-25T12:13:50Z</time>
</trkpt>
<trkpt lat="53.2997729" lon="18.4240470">
<ele>123</ele>
<time>2015-06-25T12:13:52Z</time>
</trkpt>
<trkpt lat="53.2997728" lon="18.4240471">
<ele>123</ele>
<time>2015-06-25T12:13:54Z</time>
</trkpt>
<trkpt lat="53.2997728" lon="18.4240472">
<ele>123</ele>
<time>2015-06-25T12:13:56Z</time>
</trkpt>
<trkpt lat="53.2997728" lon="18.4240472">
<ele>123</ele>
<time>2015-06-25T12:13:58Z</time>
</trkpt>
<trkpt lat="53.2997728" lon="18.4240472">
<ele>123</ele>
<time>2015-06-25T12:14:00Z</time>
</trkpt>
<trkpt lat="53.2997728" lon="18.4240472">
<ele>123</ele>
<time>2015-06-25T12:14:02Z</time>
</trkpt>
<trkpt lat="53.2997729" lon="18.4240472">
<ele>123</ele>
<time>2015-06-25T12:14:04Z</time>
</trkpt>
<trkpt lat="53.2997729" lon="18.4240472">
<ele>123</ele>
<time>2015-06-25T12:14:06Z</time>
</trkpt>
<trkpt lat="53.2997729" lon="18.4240472">
<ele>123</ele>
<time>2015-06-25T12:14:08Z</time>
</trkpt>
<trkpt lat="53.2997749" lon="18.4240441">
<ele>124</ele>
<time>2015-06-25T12:14:10Z</time>
</trkpt>
<trkpt lat="53.2997770" lon="18.4240459">
<ele>124</ele>
<time>2015-06-25T12:14:12Z</time>
</trkpt>
<trkpt lat="53.2997773" lon="18.4240418">
<ele>124</ele>
<time>2015-06-25T12:14:14Z</time>
</trkpt>
<trkpt lat="53.2997773" lon="18.4240382">
<ele>123</ele>
<time>2015-06-25T12:14:16Z</time>
</trkpt>
<trkpt lat="53.2997772" lon="18.4240373">
<ele>123</ele>
<time>2015-06-25T12:14:18Z</time>
</trkpt>
<trkpt lat="53.2997773" lon="18.4240369">
<ele>123</ele>
<time>2015-06-25T12:14:22Z</time>
</trkpt>
<trkpt lat="53.2997785" lon="18.4240391">
<ele>123</ele>
<time>2015-06-25T12:14:24Z</time>
</trkpt>
<trkpt lat="53.2997790" lon="18.4240369">
<ele>123</ele>
<time>2015-06-25T12:14:26Z</time>
</trkpt>
<trkpt lat="53.2997779" lon="18.4240338">
<ele>122</ele>
<time>2015-06-25T12:14:28Z</time>
</trkpt>
<trkpt lat="53.2997771" lon="18.4240317">
<ele>123</ele>
<time>2015-06-25T12:14:30Z</time>
</trkpt>
<trkpt lat="53.2997775" lon="18.4240348">
<ele>123</ele>
<time>2015-06-25T12:14:32Z</time>
</trkpt>
<trkpt lat="53.2997802" lon="18.4240342">
<ele>123</ele>
<time>2015-06-25T12:14:34Z</time>
</trkpt>
<trkpt lat="53.2997797" lon="18.4240364">
<ele>124</ele>
<time>2015-06-25T12:14:36Z</time>
</trkpt>
<trkpt lat="53.2997763" lon="18.4240408">
<ele>124</ele>
<time>2015-06-25T12:14:40Z</time>
</trkpt>
<trkpt lat="53.2997750" lon="18.4240408">
<ele>124</ele>
<time>2015-06-25T12:14:42Z</time>
</trkpt>
<trkpt lat="53.2997776" lon="18.4240407">
<ele>123</ele>
<time>2015-06-25T12:14:44Z</time>
</trkpt>
<trkpt lat="53.2997752" lon="18.4240493">
<ele>122</ele>
<time>2015-06-25T12:14:46Z</time>
</trkpt>
<trkpt lat="53.2997744" lon="18.4240526">
<ele>122</ele>
<time>2015-06-25T12:14:48Z</time>
</trkpt>
<trkpt lat="53.2997774" lon="18.4240470">
<ele>122</ele>
<time>2015-06-25T12:14:50Z</time>
</trkpt>
<trkpt lat="53.2997781" lon="18.4240444">
<ele>121</ele>
<time>2015-06-25T12:14:52Z</time>
</trkpt>
<trkpt lat="53.2997842" lon="18.4240419">
<ele>122</ele>
<time>2015-06-25T12:14:54Z</time>
</trkpt>
<trkpt lat="53.2997874" lon="18.4240416">
<ele>122</ele>
<time>2015-06-25T12:14:56Z</time>
</trkpt>
<trkpt lat="53.2997873" lon="18.4240420">
<ele>122</ele>
<time>2015-06-25T12:14:58Z</time>
</trkpt>
<trkpt lat="53.2997875" lon="18.4240421">
<ele>122</ele>
<time>2015-06-25T12:15:00Z</time>
</trkpt>
<trkpt lat="53.2997877" lon="18.4240421">
<ele>122</ele>
<time>2015-06-25T12:15:02Z</time>
</trkpt>
<trkpt lat="53.2997877" lon="18.4240422">
<ele>122</ele>
<time>2015-06-25T12:15:04Z</time>
</trkpt>
<trkpt lat="53.2997876" lon="18.4240422">
<ele>122</ele>
<time>2015-06-25T12:15:06Z</time>
</trkpt>
<trkpt lat="53.2997876" lon="18.4240422">
<ele>122</ele>
<time>2015-06-25T12:15:08Z</time>
</trkpt>
<trkpt lat="53.2997876" lon="18.4240422">
<ele>122</ele>
<time>2015-06-25T12:15:10Z</time>
</trkpt>
<trkpt lat="53.2997832" lon="18.4240479">
<ele>122</ele>
<time>2015-06-25T12:15:12Z</time>
</trkpt>
<trkpt lat="53.2997804" lon="18.4240519">
<ele>122</ele>
<time>2015-06-25T12:15:14Z</time>
</trkpt>
<trkpt lat="53.2997808" lon="18.4240558">
<ele>123</ele>
<time>2015-06-25T12:15:16Z</time>
</trkpt>
<trkpt lat="53.2997794" lon="18.4240590">
<ele>123</ele>
<time>2015-06-25T12:15:18Z</time>
</trkpt>
<trkpt lat="53.2997782" lon="18.4240596">
<ele>122</ele>
<time>2015-06-25T12:15:20Z</time>
</trkpt>
<trkpt lat="53.2997774" lon="18.4240588">
<ele>123</ele>
<time>2015-06-25T12:15:22Z</time>
</trkpt>
<trkpt lat="53.2997769" lon="18.4240586">
<ele>123</ele>
<time>2015-06-25T12:15:24Z</time>
</trkpt>
<trkpt lat="53.2997772" lon="18.4240581">
<ele>123</ele>
<time>2015-06-25T12:15:26Z</time>
</trkpt>
<trkpt lat="53.2997772" lon="18.4240581">
<ele>123</ele>
<time>2015-06-25T12:15:28Z</time>
</trkpt>
<trkpt lat="53.2997774" lon="18.4240579">
<ele>123</ele>
<time>2015-06-25T12:15:30Z</time>
</trkpt>
<trkpt lat="53.2997774" lon="18.4240579">
<ele>123</ele>
<time>2015-06-25T12:15:32Z</time>
</trkpt>
<trkpt lat="53.2997774" lon="18.4240579">
<ele>123</ele>
<time>2015-06-25T12:15:34Z</time>
</trkpt>
<trkpt lat="53.2997774" lon="18.4240579">
<ele>123</ele>
<time>2015-06-25T12:15:36Z</time>
</trkpt>
<trkpt lat="53.2997774" lon="18.4240579">
<ele>123</ele>
<time>2015-06-25T12:15:38Z</time>
</trkpt>
<trkpt lat="53.2997775" lon="18.4240578">
<ele>123</ele>
<time>2015-06-25T12:15:40Z</time>
</trkpt>
<trkpt lat="53.2997775" lon="18.4240578">
<ele>123</ele>
<time>2015-06-25T12:15:42Z</time>
</trkpt>
<trkpt lat="53.2997775" lon="18.4240578">
<ele>123</ele>
<time>2015-06-25T12:15:44Z</time>
</trkpt>
<trkpt lat="53.2997789" lon="18.4240558">
<ele>123</ele>
<time>2015-06-25T12:15:46Z</time>
</trkpt>
<trkpt lat="53.2997796" lon="18.4240533">
<ele>123</ele>
<time>2015-06-25T12:15:48Z</time>
</trkpt>
<trkpt lat="53.2997794" lon="18.4240494">
<ele>123</ele>
<time>2015-06-25T12:15:50Z</time>
</trkpt>
<trkpt lat="53.2997817" lon="18.4240481">
<ele>123</ele>
<time>2015-06-25T12:15:52Z</time>
</trkpt>
<trkpt lat="53.2997840" lon="18.4240489">
<ele>123</ele>
<time>2015-06-25T12:15:54Z</time>
</trkpt>
<trkpt lat="53.2997848" lon="18.4240501">
<ele>123</ele>
<time>2015-06-25T12:15:56Z</time>
</trkpt>
<trkpt lat="53.2997852" lon="18.4240503">
<ele>123</ele>
<time>2015-06-25T12:15:58Z</time>
</trkpt>
<trkpt lat="53.2997851" lon="18.4240502">
<ele>123</ele>
<time>2015-06-25T12:16:00Z</time>
</trkpt>
<trkpt lat="53.2997851" lon="18.4240501">
<ele>123</ele>
<time>2015-06-25T12:16:02Z</time>
</trkpt>
<trkpt lat="53.2997851" lon="18.4240500">
<ele>123</ele>
<time>2015-06-25T12:16:04Z</time>
</trkpt>
<trkpt lat="53.2997851" lon="18.4240500">
<ele>123</ele>
<time>2015-06-25T12:16:06Z</time>
</trkpt>
<trkpt lat="53.2997851" lon="18.4240500">
<ele>123</ele>
<time>2015-06-25T12:16:08Z</time>
</trkpt>
<trkpt lat="53.2997851" lon="18.4240500">
<ele>123</ele>
<time>2015-06-25T12:16:10Z</time>
</trkpt>
<trkpt lat="53.2997851" lon="18.42405">
<ele>123</ele>
<time>2015-06-25T12:16:12Z</time>
</trkpt>
<trkpt lat="53.2997851" lon="18.4240499">
<ele>123</ele>
<time>2015-06-25T12:16:14Z</time>
</trkpt>
<trkpt lat="53.2997850" lon="18.4240499">
<ele>123</ele>
<time>2015-06-25T12:16:16Z</time>
</trkpt>
<trkpt lat="53.2997850" lon="18.4240499">
<ele>123</ele>
<time>2015-06-25T12:16:18Z</time>
</trkpt>
<trkpt lat="53.2997850" lon="18.4240499">
<ele>123</ele>
<time>2015-06-25T12:16:20Z</time>
</trkpt>
<trkpt lat="53.2997851" lon="18.4240498">
<ele>123</ele>
<time>2015-06-25T12:16:22Z</time>
</trkpt>
<trkpt lat="53.2997851" lon="18.4240498">
<ele>123</ele>
<time>2015-06-25T12:16:24Z</time>
</trkpt>
<trkpt lat="53.2997851" lon="18.4240498">
<ele>123</ele>
<time>2015-06-25T12:16:26Z</time>
</trkpt>
<trkpt lat="53.2997851" lon="18.4240498">
<ele>123</ele>
<time>2015-06-25T12:16:28Z</time>
</trkpt>
<trkpt lat="53.2997851" lon="18.4240498">
<ele>123</ele>
<time>2015-06-25T12:16:30Z</time>
</trkpt>
<trkpt lat="53.2997851" lon="18.4240498">
<ele>123</ele>
<time>2015-06-25T12:16:32Z</time>
</trkpt>
<trkpt lat="53.2997851" lon="18.4240498">
<ele>123</ele>
<time>2015-06-25T12:16:34Z</time>
</trkpt>
<trkpt lat="53.2997851" lon="18.4240499">
<ele>123</ele>
<time>2015-06-25T12:16:36Z</time>
</trkpt>
<trkpt lat="53.2997851" lon="18.4240499">
<ele>123</ele>
<time>2015-06-25T12:16:38Z</time>
</trkpt>
<trkpt lat="53.2997851" lon="18.4240498">
<ele>123</ele>
<time>2015-06-25T12:16:40Z</time>
</trkpt>
<trkpt lat="53.2997851" lon="18.4240498">
<ele>123</ele>
<time>2015-06-25T12:16:44Z</time>
</trkpt>
<trkpt lat="53.2997844" lon="18.4240507">
<ele>123</ele>
<time>2015-06-25T12:16:46Z</time>
</trkpt>
<trkpt lat="53.2997824" lon="18.4240455">
<ele>123</ele>
<time>2015-06-25T12:16:48Z</time>
</trkpt>
<trkpt lat="53.2997860" lon="18.4240528">
<ele>123</ele>
<time>2015-06-25T12:16:52Z</time>
</trkpt>
<trkpt lat="53.2997875" lon="18.4240516">
<ele>123</ele>
<time>2015-06-25T12:16:54Z</time>
</trkpt>
<trkpt lat="53.2997891" lon="18.4240509">
<ele>123</ele>
<time>2015-06-25T12:16:56Z</time>
</trkpt>
<trkpt lat="53.2997904" lon="18.4240540">
<ele>123</ele>
<time>2015-06-25T12:16:58Z</time>
</trkpt>
<trkpt lat="53.2997886" lon="18.4240575">
<ele>123</ele>
<time>2015-06-25T12:17:00Z</time>
</trkpt>
<trkpt lat="53.2997871" lon="18.4240587">
<ele>123</ele>
<time>2015-06-25T12:17:02Z</time>
</trkpt>
<trkpt lat="53.2997865" lon="18.4240586">
<ele>123</ele>
<time>2015-06-25T12:17:04Z</time>
</trkpt>
<trkpt lat="53.2997865" lon="18.4240578">
<ele>123</ele>
<time>2015-06-25T12:17:06Z</time>
</trkpt>
<trkpt lat="53.2997866" lon="18.4240575">
<ele>123</ele>
<time>2015-06-25T12:17:08Z</time>
</trkpt>
<trkpt lat="53.2997868" lon="18.4240576">
<ele>123</ele>
<time>2015-06-25T12:17:10Z</time>
</trkpt>
<trkpt lat="53.2997869" lon="18.4240571">
<ele>123</ele>
<time>2015-06-25T12:17:12Z</time>
</trkpt>
<trkpt lat="53.2997869" lon="18.4240568">
<ele>123</ele>
<time>2015-06-25T12:17:14Z</time>
</trkpt>
<trkpt lat="53.2997870" lon="18.4240566">
<ele>123</ele>
<time>2015-06-25T12:17:16Z</time>
</trkpt>
<trkpt lat="53.2997870" lon="18.4240565">
<ele>123</ele>
<time>2015-06-25T12:17:18Z</time>
</trkpt>
<trkpt lat="53.2997870" lon="18.4240564">
<ele>123</ele>
<time>2015-06-25T12:17:20Z</time>
</trkpt>
<trkpt lat="53.2997871" lon="18.4240564">
<ele>123</ele>
<time>2015-06-25T12:17:22Z</time>
</trkpt>
<trkpt lat="53.2997870" lon="18.4240563">
<ele>123</ele>
<time>2015-06-25T12:17:24Z</time>
</trkpt>
<trkpt lat="53.2997870" lon="18.4240563">
<ele>123</ele>
<time>2015-06-25T12:17:26Z</time>
</trkpt>
<trkpt lat="53.2997870" lon="18.4240563">
<ele>123</ele>
<time>2015-06-25T12:17:28Z</time>
</trkpt>
<trkpt lat="53.2997870" lon="18.4240563">
<ele>123</ele>
<time>2015-06-25T12:17:30Z</time>
</trkpt>
<trkpt lat="53.2997870" lon="18.4240564">
<ele>123</ele>
<time>2015-06-25T12:17:32Z</time>
</trkpt>
<trkpt lat="53.2997870" lon="18.4240564">
<ele>123</ele>
<time>2015-06-25T12:17:34Z</time>
</trkpt>
<trkpt lat="53.2997870" lon="18.4240564">
<ele>123</ele>
<time>2015-06-25T12:17:36Z</time>
</trkpt>
<trkpt lat="53.2997871" lon="18.4240563">
<ele>123</ele>
<time>2015-06-25T12:17:38Z</time>
</trkpt>
<trkpt lat="53.2997871" lon="18.4240563">
<ele>123</ele>
<time>2015-06-25T12:17:40Z</time>
</trkpt>
<trkpt lat="53.2997871" lon="18.4240563">
<ele>123</ele>
<time>2015-06-25T12:17:42Z</time>
</trkpt>
<trkpt lat="53.2997871" lon="18.4240564">
<ele>123</ele>
<time>2015-06-25T12:17:44Z</time>
</trkpt>
<trkpt lat="53.2997872" lon="18.4240564">
<ele>123</ele>
<time>2015-06-25T12:17:46Z</time>
</trkpt>
<trkpt lat="53.2997872" lon="18.4240564">
<ele>123</ele>
<time>2015-06-25T12:17:48Z</time>
</trkpt>
<trkpt lat="53.2997872" lon="18.4240564">
<ele>123</ele>
<time>2015-06-25T12:17:50Z</time>
</trkpt>
<trkpt lat="53.2997872" lon="18.4240564">
<ele>123</ele>
<time>2015-06-25T12:17:52Z</time>
</trkpt>
<trkpt lat="53.2997871" lon="18.4240564">
<ele>123</ele>
<time>2015-06-25T12:17:54Z</time>
</trkpt>
<trkpt lat="53.2997871" lon="18.4240564">
<ele>123</ele>
<time>2015-06-25T12:17:56Z</time>
</trkpt>
<trkpt lat="53.2997871" lon="18.4240565">
<ele>123</ele>
<time>2015-06-25T12:17:58Z</time>
</trkpt>
<trkpt lat="53.2997871" lon="18.4240565">
<ele>123</ele>
<time>2015-06-25T12:18:00Z</time>
</trkpt>
<trkpt lat="53.2997870" lon="18.4240565">
<ele>123</ele>
<time>2015-06-25T12:18:02Z</time>
</trkpt>
<trkpt lat="53.2997870" lon="18.4240566">
<ele>123</ele>
<time>2015-06-25T12:18:04Z</time>
</trkpt>
<trkpt lat="53.2997871" lon="18.4240565">
<ele>123</ele>
<time>2015-06-25T12:18:06Z</time>
</trkpt>
<trkpt lat="53.2997871" lon="18.4240565">
<ele>123</ele>
<time>2015-06-25T12:18:08Z</time>
</trkpt>
<trkpt lat="53.2997871" lon="18.4240565">
<ele>123</ele>
<time>2015-06-25T12:18:10Z</time>
</trkpt>
<trkpt lat="53.2997872" lon="18.4240565">
<ele>123</ele>
<time>2015-06-25T12:18:12Z</time>
</trkpt>
<trkpt lat="53.2997873" lon="18.4240564">
<ele>123</ele>
<time>2015-06-25T12:18:16Z</time>
</trkpt>
<trkpt lat="53.2997873" lon="18.4240564">
<ele>123</ele>
<time>2015-06-25T12:18:18Z</time>
</trkpt>
<trkpt lat="53.2997873" lon="18.4240564">
<ele>123</ele>
<time>2015-06-25T12:18:20Z</time>
</trkpt>
<trkpt lat="53.2997873" lon="18.4240563">
<ele>123</ele>
<time>2015-06-25T12:18:22Z</time>
</trkpt>
<trkpt lat="53.2997872" lon="18.4240564">
<ele>123</ele>
<time>2015-06-25T12:18:24Z</time>
</trkpt>
<trkpt lat="53.2997872" lon="18.4240563">
<ele>123</ele>
<time>2015-06-25T12:18:26Z</time>
</trkpt>
<trkpt lat="53.2997872" lon="18.4240563">
<ele>123</ele>
<time>2015-06-25T12:18:28Z</time>
</trkpt>
<trkpt lat="53.2997871" lon="18.4240563">
<ele>123</ele>
<time>2015-06-25T12:18:30Z</time>
</trkpt>
<trkpt lat="53.2997871" lon="18.4240562">
<ele>123</ele>
<time>2015-06-25T12:18:32Z</time>
</trkpt>
<trkpt lat="53.2997872" lon="18.4240561">
<ele>123</ele>
<time>2015-06-25T12:18:34Z</time>
</trkpt>
<trkpt lat="53.2997871" lon="18.4240560">
<ele>123</ele>
<time>2015-06-25T12:18:36Z</time>
</trkpt>
<trkpt lat="53.2997871" lon="18.4240559">
<ele>124</ele>
<time>2015-06-25T12:18:40Z</time>
</trkpt>
<trkpt lat="53.2997871" lon="18.4240558">
<ele>124</ele>
<time>2015-06-25T12:18:42Z</time>
</trkpt>
<trkpt lat="53.2997870" lon="18.4240559">
<ele>124</ele>
<time>2015-06-25T12:18:44Z</time>
</trkpt>
<trkpt lat="53.2997870" lon="18.4240559">
<ele>124</ele>
<time>2015-06-25T12:18:48Z</time>
</trkpt>
<trkpt lat="53.2997870" lon="18.4240559">
<ele>124</ele>
<time>2015-06-25T12:18:50Z</time>
</trkpt>
<trkpt lat="53.2997869" lon="18.4240559">
<ele>124</ele>
<time>2015-06-25T12:18:52Z</time>
</trkpt>
<trkpt lat="53.2997865" lon="18.4240546">
<ele>124</ele>
<time>2015-06-25T12:18:54Z</time>
</trkpt>
<trkpt lat="53.2997881" lon="18.4240600">
<ele>124</ele>
<time>2015-06-25T12:18:56Z</time>
</trkpt>
<trkpt lat="53.2997892" lon="18.4240617">
<ele>124</ele>
<time>2015-06-25T12:18:58Z</time>
</trkpt>
<trkpt lat="53.2997933" lon="18.4240521">
<ele>123</ele>
<time>2015-06-25T12:19:00Z</time>
</trkpt>
<trkpt lat="53.2997959" lon="18.4240545">
<ele>123</ele>
<time>2015-06-25T12:19:02Z</time>
</trkpt>
<trkpt lat="53.2997981" lon="18.4240554">
<ele>123</ele>
<time>2015-06-25T12:19:04Z</time>
</trkpt>
<trkpt lat="53.2997987" lon="18.4240549">
<ele>123</ele>
<time>2015-06-25T12:19:06Z</time>
</trkpt>
<trkpt lat="53.2997983" lon="18.4240540">
<ele>123</ele>
<time>2015-06-25T12:19:08Z</time>
</trkpt>
<trkpt lat="53.2997982" lon="18.4240534">
<ele>123</ele>
<time>2015-06-25T12:19:10Z</time>
</trkpt>
<trkpt lat="53.2997983" lon="18.4240534">
<ele>123</ele>
<time>2015-06-25T12:19:12Z</time>
</trkpt>
<trkpt lat="53.2997984" lon="18.4240534">
<ele>123</ele>
<time>2015-06-25T12:19:14Z</time>
</trkpt>
<trkpt lat="53.2997985" lon="18.4240534">
<ele>123</ele>
<time>2015-06-25T12:19:16Z</time>
</trkpt>
<trkpt lat="53.2997984" lon="18.4240535">
<ele>123</ele>
<time>2015-06-25T12:19:20Z</time>
</trkpt>
<trkpt lat="53.2997985" lon="18.4240535">
<ele>123</ele>
<time>2015-06-25T12:19:24Z</time>
</trkpt>
<trkpt lat="53.2997985" lon="18.4240535">
<ele>123</ele>
<time>2015-06-25T12:19:26Z</time>
</trkpt>
<trkpt lat="53.2997985" lon="18.4240536">
<ele>123</ele>
<time>2015-06-25T12:19:28Z</time>
</trkpt>
<trkpt lat="53.2997986" lon="18.4240536">
<ele>123</ele>
<time>2015-06-25T12:19:30Z</time>
</trkpt>
<trkpt lat="53.2997986" lon="18.4240536">
<ele>123</ele>
<time>2015-06-25T12:19:32Z</time>
</trkpt>
<trkpt lat="53.2997985" lon="18.4240537">
<ele>123</ele>
<time>2015-06-25T12:19:34Z</time>
</trkpt>
<trkpt lat="53.2997985" lon="18.4240536">
<ele>123</ele>
<time>2015-06-25T12:19:36Z</time>
</trkpt>
<trkpt lat="53.2997985" lon="18.4240537">
<ele>123</ele>
<time>2015-06-25T12:19:40Z</time>
</trkpt>
<trkpt lat="53.2997984" lon="18.4240538">
<ele>123</ele>
<time>2015-06-25T12:19:42Z</time>
</trkpt>
<trkpt lat="53.2997984" lon="18.4240539">
<ele>123</ele>
<time>2015-06-25T12:19:44Z</time>
</trkpt>
<trkpt lat="53.2997983" lon="18.424054">
<ele>123</ele>
<time>2015-06-25T12:19:46Z</time>
</trkpt>
<trkpt lat="53.2997983" lon="18.4240540">
<ele>123</ele>
<time>2015-06-25T12:19:48Z</time>
</trkpt>
<trkpt lat="53.2997983" lon="18.4240541">
<ele>123</ele>
<time>2015-06-25T12:19:50Z</time>
</trkpt>
<trkpt lat="53.2997983" lon="18.4240540">
<ele>123</ele>
<time>2015-06-25T12:19:52Z</time>
</trkpt>
<trkpt lat="53.2997983" lon="18.4240540">
<ele>123</ele>
<time>2015-06-25T12:19:54Z</time>
</trkpt>
<trkpt lat="53.2997983" lon="18.4240540">
<ele>123</ele>
<time>2015-06-25T12:19:56Z</time>
</trkpt>
<trkpt lat="53.2997983" lon="18.4240540">
<ele>123</ele>
<time>2015-06-25T12:19:58Z</time>
</trkpt>
<trkpt lat="53.2997983" lon="18.4240541">
<ele>123</ele>
<time>2015-06-25T12:20:02Z</time>
</trkpt>
<trkpt lat="53.2997983" lon="18.4240541">
<ele>123</ele>
<time>2015-06-25T12:20:04Z</time>
</trkpt>
<trkpt lat="53.2997983" lon="18.4240542">
<ele>123</ele>
<time>2015-06-25T12:20:06Z</time>
</trkpt>
<trkpt lat="53.2997983" lon="18.4240543">
<ele>123</ele>
<time>2015-06-25T12:20:08Z</time>
</trkpt>
<trkpt lat="53.2997983" lon="18.4240543">
<ele>123</ele>
<time>2015-06-25T12:20:10Z</time>
</trkpt>
<trkpt lat="53.2997984" lon="18.4240543">
<ele>123</ele>
<time>2015-06-25T12:20:12Z</time>
</trkpt>
<trkpt lat="53.2997984" lon="18.4240543">
<ele>123</ele>
<time>2015-06-25T12:20:14Z</time>
</trkpt>
<trkpt lat="53.2997984" lon="18.4240543">
<ele>123</ele>
<time>2015-06-25T12:20:16Z</time>
</trkpt>
<trkpt lat="53.2997984" lon="18.4240543">
<ele>123</ele>
<time>2015-06-25T12:20:18Z</time>
</trkpt>
<trkpt lat="53.2997983" lon="18.4240544">
<ele>123</ele>
<time>2015-06-25T12:20:20Z</time>
</trkpt>
<trkpt lat="53.2997983" lon="18.4240544">
<ele>123</ele>
<time>2015-06-25T12:20:22Z</time>
</trkpt>
<trkpt lat="53.2997983" lon="18.4240544">
<ele>123</ele>
<time>2015-06-25T12:20:24Z</time>
</trkpt>
<trkpt lat="53.2997982" lon="18.4240544">
<ele>123</ele>
<time>2015-06-25T12:20:26Z</time>
</trkpt>
<trkpt lat="53.2997982" lon="18.4240544">
<ele>123</ele>
<time>2015-06-25T12:20:28Z</time>
</trkpt>
<trkpt lat="53.2997983" lon="18.4240543">
<ele>123</ele>
<time>2015-06-25T12:20:30Z</time>
</trkpt>
<trkpt lat="53.2997982" lon="18.4240543">
<ele>123</ele>
<time>2015-06-25T12:20:32Z</time>
</trkpt>
<trkpt lat="53.2997982" lon="18.4240543">
<ele>123</ele>
<time>2015-06-25T12:20:34Z</time>
</trkpt>
<trkpt lat="53.2997981" lon="18.4240544">
<ele>123</ele>
<time>2015-06-25T12:20:36Z</time>
</trkpt>
<trkpt lat="53.2997981" lon="18.4240544">
<ele>123</ele>
<time>2015-06-25T12:20:38Z</time>
</trkpt>
<trkpt lat="53.2997980" lon="18.4240545">
<ele>123</ele>
<time>2015-06-25T12:20:40Z</time>
</trkpt>
<trkpt lat="53.2997980" lon="18.4240545">
<ele>123</ele>
<time>2015-06-25T12:20:42Z</time>
</trkpt>
<trkpt lat="53.2997980" lon="18.4240546">
<ele>123</ele>
<time>2015-06-25T12:20:44Z</time>
</trkpt>
<trkpt lat="53.299798" lon="18.4240546">
<ele>123</ele>
<time>2015-06-25T12:20:46Z</time>
</trkpt>
<trkpt lat="53.2997979" lon="18.4240546">
<ele>123</ele>
<time>2015-06-25T12:20:48Z</time>
</trkpt>
<trkpt lat="53.2997979" lon="18.4240546">
<ele>123</ele>
<time>2015-06-25T12:20:50Z</time>
</trkpt>
<trkpt lat="53.2997979" lon="18.4240546">
<ele>123</ele>
<time>2015-06-25T12:20:52Z</time>
</trkpt>
<trkpt lat="53.2997979" lon="18.4240547">
<ele>123</ele>
<time>2015-06-25T12:20:54Z</time>
</trkpt>
<trkpt lat="53.299798" lon="18.4240547">
<ele>123</ele>
<time>2015-06-25T12:20:56Z</time>
</trkpt>
<trkpt lat="53.2997980" lon="18.4240547">
<ele>123</ele>
<time>2015-06-25T12:20:58Z</time>
</trkpt>
<trkpt lat="53.2997980" lon="18.4240547">
<ele>123</ele>
<time>2015-06-25T12:21:00Z</time>
</trkpt>
<trkpt lat="53.299798" lon="18.4240548">
<ele>123</ele>
<time>2015-06-25T12:21:02Z</time>
</trkpt>
<trkpt lat="53.2997979" lon="18.4240548">
<ele>123</ele>
<time>2015-06-25T12:21:04Z</time>
</trkpt>
<trkpt lat="53.2997979" lon="18.4240549">
<ele>123</ele>
<time>2015-06-25T12:21:08Z</time>
</trkpt>
<trkpt lat="53.2997979" lon="18.4240549">
<ele>123</ele>
<time>2015-06-25T12:21:10Z</time>
</trkpt>
<trkpt lat="53.2997978" lon="18.4240550">
<ele>123</ele>
<time>2015-06-25T12:21:12Z</time>
</trkpt>
<trkpt lat="53.2997978" lon="18.4240551">
<ele>124</ele>
<time>2015-06-25T12:21:14Z</time>
</trkpt>
<trkpt lat="53.2997978" lon="18.4240551">
<ele>123</ele>
<time>2015-06-25T12:21:16Z</time>
</trkpt>
<trkpt lat="53.2997978" lon="18.4240551">
<ele>123</ele>
<time>2015-06-25T12:21:18Z</time>
</trkpt>
<trkpt lat="53.2997978" lon="18.4240551">
<ele>123</ele>
<time>2015-06-25T12:21:20Z</time>
</trkpt>
<trkpt lat="53.2997978" lon="18.4240551">
<ele>123</ele>
<time>2015-06-25T12:21:22Z</time>
</trkpt>
<trkpt lat="53.2997978" lon="18.4240551">
<ele>124</ele>
<time>2015-06-25T12:21:24Z</time>
</trkpt>
<trkpt lat="53.2997979" lon="18.4240561">
<ele>124</ele>
<time>2015-06-25T12:22:30Z</time>
</trkpt>
<trkpt lat="53.2997979" lon="18.4240562">
<ele>124</ele>
<time>2015-06-25T12:22:32Z</time>
</trkpt>
<trkpt lat="53.299798" lon="18.4240562">
<ele>124</ele>
<time>2015-06-25T12:22:34Z</time>
</trkpt>
<trkpt lat="53.2997979" lon="18.4240564">
<ele>124</ele>
<time>2015-06-25T12:22:38Z</time>
</trkpt>
<trkpt lat="53.2997979" lon="18.4240564">
<ele>124</ele>
<time>2015-06-25T12:22:40Z</time>
</trkpt>
<trkpt lat="53.2997979" lon="18.4240564">
<ele>124</ele>
<time>2015-06-25T12:22:42Z</time>
</trkpt>
<trkpt lat="53.2997979" lon="18.4240565">
<ele>124</ele>
<time>2015-06-25T12:22:44Z</time>
</trkpt>
<trkpt lat="53.2997979" lon="18.4240565">
<ele>124</ele>
<time>2015-06-25T12:22:46Z</time>
</trkpt>
<trkpt lat="53.2997980" lon="18.4240566">
<ele>124</ele>
<time>2015-06-25T12:22:48Z</time>
</trkpt>
<trkpt lat="53.299798" lon="18.4240566">
<ele>124</ele>
<time>2015-06-25T12:22:50Z</time>
</trkpt>
<trkpt lat="53.2997980" lon="18.4240566">
<ele>124</ele>
<time>2015-06-25T12:22:52Z</time>
</trkpt>
<trkpt lat="53.2997979" lon="18.4240566">
<ele>124</ele>
<time>2015-06-25T12:22:54Z</time>
</trkpt>
<trkpt lat="53.2997979" lon="18.4240566">
<ele>124</ele>
<time>2015-06-25T12:22:56Z</time>
</trkpt>
<trkpt lat="53.2997980" lon="18.4240565">
<ele>124</ele>
<time>2015-06-25T12:23:00Z</time>
</trkpt>
<trkpt lat="53.2997980" lon="18.4240565">
<ele>124</ele>
<time>2015-06-25T12:23:04Z</time>
</trkpt>
<trkpt lat="53.2997980" lon="18.4240565">
<ele>124</ele>
<time>2015-06-25T12:23:06Z</time>
</trkpt>
<trkpt lat="53.2997980" lon="18.4240564">
<ele>124</ele>
<time>2015-06-25T12:23:08Z</time>
</trkpt>
<trkpt lat="53.2997980" lon="18.4240563">
<ele>124</ele>
<time>2015-06-25T12:23:10Z</time>
</trkpt>
<trkpt lat="53.2997980" lon="18.4240563">
<ele>124</ele>
<time>2015-06-25T12:23:12Z</time>
</trkpt>
<trkpt lat="53.2997980" lon="18.4240563">
<ele>124</ele>
<time>2015-06-25T12:23:14Z</time>
</trkpt>
<trkpt lat="53.299798" lon="18.4240564">
<ele>124</ele>
<time>2015-06-25T12:23:16Z</time>
</trkpt>
<trkpt lat="53.2997979" lon="18.4240564">
<ele>124</ele>
<time>2015-06-25T12:23:18Z</time>
</trkpt>
<trkpt lat="53.2997979" lon="18.4240565">
<ele>124</ele>
<time>2015-06-25T12:23:20Z</time>
</trkpt>
<trkpt lat="53.2997979" lon="18.4240565">
<ele>124</ele>
<time>2015-06-25T12:23:22Z</time>
</trkpt>
<trkpt lat="53.2997980" lon="18.4240565">
<ele>124</ele>
<time>2015-06-25T12:23:24Z</time>
</trkpt>
<trkpt lat="53.2997980" lon="18.4240565">
<ele>124</ele>
<time>2015-06-25T12:23:26Z</time>
</trkpt>
<trkpt lat="53.2997980" lon="18.4240566">
<ele>124</ele>
<time>2015-06-25T12:23:28Z</time>
</trkpt>
<trkpt lat="53.2997980" lon="18.4240567">
<ele>124</ele>
<time>2015-06-25T12:23:30Z</time>
</trkpt>
<trkpt lat="53.2997975" lon="18.4240580">
<ele>124</ele>
<time>2015-06-25T12:25:32Z</time>
</trkpt>
<trkpt lat="53.2997975" lon="18.4240581">
<ele>124</ele>
<time>2015-06-25T12:25:34Z</time>
</trkpt>
<trkpt lat="53.2997975" lon="18.4240582">
<ele>124</ele>
<time>2015-06-25T12:25:36Z</time>
</trkpt>
<trkpt lat="53.2997975" lon="18.4240583">
<ele>124</ele>
<time>2015-06-25T12:25:40Z</time>
</trkpt>
<trkpt lat="53.2997975" lon="18.4240584">
<ele>124</ele>
<time>2015-06-25T12:25:42Z</time>
</trkpt>
<trkpt lat="53.2997976" lon="18.4240584">
<ele>124</ele>
<time>2015-06-25T12:25:46Z</time>
</trkpt>
<trkpt lat="53.2997976" lon="18.4240584">
<ele>124</ele>
<time>2015-06-25T12:25:48Z</time>
</trkpt>
<trkpt lat="53.2997976" lon="18.4240583">
<ele>124</ele>
<time>2015-06-25T12:25:50Z</time>
</trkpt>
<trkpt lat="53.2997976" lon="18.4240583">
<ele>124</ele>
<time>2015-06-25T12:25:52Z</time>
</trkpt>
<trkpt lat="53.2997976" lon="18.4240584">
<ele>124</ele>
<time>2015-06-25T12:25:54Z</time>
</trkpt>
<trkpt lat="53.2997976" lon="18.4240584">
<ele>124</ele>
<time>2015-06-25T12:25:56Z</time>
</trkpt>
<trkpt lat="53.2997976" lon="18.4240584">
<ele>124</ele>
<time>2015-06-25T12:25:58Z</time>
</trkpt>
<trkpt lat="53.2997976" lon="18.4240584">
<ele>124</ele>
<time>2015-06-25T12:26:02Z</time>
</trkpt>
<trkpt lat="53.2997976" lon="18.4240584">
<ele>124</ele>
<time>2015-06-25T12:26:04Z</time>
</trkpt>
<trkpt lat="53.2997975" lon="18.4240583">
<ele>124</ele>
<time>2015-06-25T12:27:04Z</time>
</trkpt>
<trkpt lat="53.2997974" lon="18.4240583">
<ele>124</ele>
<time>2015-06-25T12:27:06Z</time>
</trkpt>
<trkpt lat="53.2997974" lon="18.4240584">
<ele>124</ele>
<time>2015-06-25T12:27:08Z</time>
</trkpt>
<trkpt lat="53.2997973" lon="18.4240584">
<ele>124</ele>
<time>2015-06-25T12:27:14Z</time>
</trkpt>
<trkpt lat="53.2997973" lon="18.4240584">
<ele>124</ele>
<time>2015-06-25T12:27:16Z</time>
</trkpt>
<trkpt lat="53.2997973" lon="18.4240585">
<ele>124</ele>
<time>2015-06-25T12:27:18Z</time>
</trkpt>
<trkpt lat="53.2997972" lon="18.4240586">
<ele>124</ele>
<time>2015-06-25T12:27:22Z</time>
</trkpt>
<trkpt lat="53.2997972" lon="18.4240586">
<ele>124</ele>
<time>2015-06-25T12:27:24Z</time>
</trkpt>
<trkpt lat="53.2997972" lon="18.4240586">
<ele>124</ele>
<time>2015-06-25T12:27:26Z</time>
</trkpt>
<trkpt lat="53.2997972" lon="18.4240585">
<ele>124</ele>
<time>2015-06-25T12:27:28Z</time>
</trkpt>
<trkpt lat="53.2997972" lon="18.4240585">
<ele>124</ele>
<time>2015-06-25T12:27:32Z</time>
</trkpt>
<trkpt lat="53.2997972" lon="18.4240584">
<ele>124</ele>
<time>2015-06-25T12:27:36Z</time>
</trkpt>
<trkpt lat="53.2997972" lon="18.4240584">
<ele>124</ele>
<time>2015-06-25T12:27:38Z</time>
</trkpt>
<trkpt lat="53.2997972" lon="18.4240583">
<ele>124</ele>
<time>2015-06-25T12:27:40Z</time>
</trkpt>
<trkpt lat="53.2997972" lon="18.4240583">
<ele>124</ele>
<time>2015-06-25T12:27:42Z</time>
</trkpt>
<trkpt lat="53.2997972" lon="18.4240582">
<ele>124</ele>
<time>2015-06-25T12:27:44Z</time>
</trkpt>
<trkpt lat="53.2997972" lon="18.4240582">
<ele>124</ele>
<time>2015-06-25T12:27:46Z</time>
</trkpt>
<trkpt lat="53.2997972" lon="18.4240582">
<ele>124</ele>
<time>2015-06-25T12:27:48Z</time>
</trkpt>
<trkpt lat="53.2997972" lon="18.4240581">
<ele>124</ele>
<time>2015-06-25T12:27:52Z</time>
</trkpt>
<trkpt lat="53.2997972" lon="18.4240581">
<ele>124</ele>
<time>2015-06-25T12:27:54Z</time>
</trkpt>
<trkpt lat="53.2997972" lon="18.4240581">
<ele>124</ele>
<time>2015-06-25T12:27:56Z</time>
</trkpt>
<trkpt lat="53.2997972" lon="18.4240580">
<ele>124</ele>
<time>2015-06-25T12:27:58Z</time>
</trkpt>
<trkpt lat="53.2997972" lon="18.4240580">
<ele>124</ele>
<time>2015-06-25T12:28:00Z</time>
</trkpt>
<trkpt lat="53.2997972" lon="18.4240580">
<ele>124</ele>
<time>2015-06-25T12:28:02Z</time>
</trkpt>
<trkpt lat="53.2997972" lon="18.4240580">
<ele>124</ele>
<time>2015-06-25T12:28:04Z</time>
</trkpt>
<trkpt lat="53.2997972" lon="18.424058">
<ele>124</ele>
<time>2015-06-25T12:28:06Z</time>
</trkpt>
<trkpt lat="53.2997972" lon="18.4240579">
<ele>124</ele>
<time>2015-06-25T12:28:08Z</time>
</trkpt>
<trkpt lat="53.2997972" lon="18.4240579">
<ele>124</ele>
<time>2015-06-25T12:28:10Z</time>
</trkpt>
<trkpt lat="53.2997972" lon="18.4240579">
<ele>124</ele>
<time>2015-06-25T12:28:12Z</time>
</trkpt>
<trkpt lat="53.2997972" lon="18.4240579">
<ele>124</ele>
<time>2015-06-25T12:28:14Z</time>
</trkpt>
<trkpt lat="53.2997972" lon="18.4240579">
<ele>124</ele>
<time>2015-06-25T12:28:16Z</time>
</trkpt>
<trkpt lat="53.2997971" lon="18.4240579">
<ele>124</ele>
<time>2015-06-25T12:28:18Z</time>
</trkpt>
<trkpt lat="53.2997971" lon="18.4240579">
<ele>124</ele>
<time>2015-06-25T12:28:20Z</time>
</trkpt>
<trkpt lat="53.2997971" lon="18.4240579">
<ele>124</ele>
<time>2015-06-25T12:28:22Z</time>
</trkpt>
<trkpt lat="53.2997971" lon="18.4240579">
<ele>124</ele>
<time>2015-06-25T12:28:24Z</time>
</trkpt>
<trkpt lat="53.2997971" lon="18.4240579">
<ele>124</ele>
<time>2015-06-25T12:28:26Z</time>
</trkpt>
<trkpt lat="53.2997971" lon="18.4240579">
<ele>124</ele>
<time>2015-06-25T12:28:28Z</time>
</trkpt>
<trkpt lat="53.2997971" lon="18.4240578">
<ele>124</ele>
<time>2015-06-25T12:28:30Z</time>
</trkpt>
<trkpt lat="53.2997971" lon="18.4240578">
<ele>124</ele>
<time>2015-06-25T12:28:32Z</time>
</trkpt>
<trkpt lat="53.2997971" lon="18.4240578">
<ele>124</ele>
<time>2015-06-25T12:28:34Z</time>
</trkpt>
<trkpt lat="53.2997971" lon="18.4240578">
<ele>124</ele>
<time>2015-06-25T12:28:36Z</time>
</trkpt>
<trkpt lat="53.2997971" lon="18.4240577">
<ele>124</ele>
<time>2015-06-25T12:28:38Z</time>
</trkpt>
<trkpt lat="53.2997971" lon="18.4240568">
<ele>124</ele>
<time>2015-06-25T12:29:52Z</time>
</trkpt>
<trkpt lat="53.2997977" lon="18.4240562">
<ele>124</ele>
<time>2015-06-25T12:35:42Z</time>
</trkpt>
<trkpt lat="53.2997977" lon="18.4240562">
<ele>124</ele>
<time>2015-06-25T12:35:44Z</time>
</trkpt>
<trkpt lat="53.2997977" lon="18.4240562">
<ele>124</ele>
<time>2015-06-25T12:35:46Z</time>
</trkpt>
<trkpt lat="53.2997977" lon="18.4240563">
<ele>124</ele>
<time>2015-06-25T12:35:48Z</time>
</trkpt>
<trkpt lat="53.2997977" lon="18.4240563">
<ele>124</ele>
<time>2015-06-25T12:35:50Z</time>
</trkpt>
<trkpt lat="53.2997976" lon="18.4240582">
<ele>124</ele>
<time>2015-06-25T12:41:54Z</time>
</trkpt>
<trkpt lat="53.2997976" lon="18.4240583">
<ele>124</ele>
<time>2015-06-25T12:41:58Z</time>
</trkpt>
<trkpt lat="53.2997976" lon="18.4240583">
<ele>124</ele>
<time>2015-06-25T12:42:00Z</time>
</trkpt>
<trkpt lat="53.2997976" lon="18.4240583">
<ele>124</ele>
<time>2015-06-25T12:42:02Z</time>
</trkpt>
<trkpt lat="53.2997977" lon="18.4240583">
<ele>124</ele>
<time>2015-06-25T12:42:04Z</time>
</trkpt>
<trkpt lat="53.2997977" lon="18.4240583">
<ele>124</ele>
<time>2015-06-25T12:42:06Z</time>
</trkpt>
<trkpt lat="53.2997977" lon="18.4240583">
<ele>124</ele>
<time>2015-06-25T12:42:08Z</time>
</trkpt>
<trkpt lat="53.2997977" lon="18.4240583">
<ele>124</ele>
<time>2015-06-25T12:42:10Z</time>
</trkpt>
<trkpt lat="53.2997977" lon="18.4240583">
<ele>124</ele>
<time>2015-06-25T12:42:12Z</time>
</trkpt>
<trkpt lat="53.2997977" lon="18.4240583">
<ele>124</ele>
<time>2015-06-25T12:42:14Z</time>
</trkpt>
<trkpt lat="53.2997977" lon="18.4240583">
<ele>124</ele>
<time>2015-06-25T12:42:16Z</time>
</trkpt>
<trkpt lat="53.2997977" lon="18.4240583">
<ele>124</ele>
<time>2015-06-25T12:42:18Z</time>
</trkpt>
<trkpt lat="53.2997977" lon="18.4240583">
<ele>124</ele>
<time>2015-06-25T12:42:22Z</time>
</trkpt>
<trkpt lat="53.2997977" lon="18.4240583">
<ele>124</ele>
<time>2015-06-25T12:42:24Z</time>
</trkpt>
<trkpt lat="53.2997977" lon="18.4240583">
<ele>124</ele>
<time>2015-06-25T12:42:26Z</time>
</trkpt>
<trkpt lat="53.2997977" lon="18.4240583">
<ele>124</ele>
<time>2015-06-25T12:42:28Z</time>
</trkpt>
<trkpt lat="53.2997977" lon="18.4240583">
<ele>124</ele>
<time>2015-06-25T12:42:30Z</time>
</trkpt>
<trkpt lat="53.2997977" lon="18.4240583">
<ele>124</ele>
<time>2015-06-25T12:42:32Z</time>
</trkpt>
<trkpt lat="53.2997977" lon="18.4240584">
<ele>124</ele>
<time>2015-06-25T12:42:34Z</time>
</trkpt>
<trkpt lat="53.2997977" lon="18.4240584">
<ele>124</ele>
<time>2015-06-25T12:42:36Z</time>
</trkpt>
<trkpt lat="53.2997977" lon="18.4240584">
<ele>124</ele>
<time>2015-06-25T12:42:38Z</time>
</trkpt>
<trkpt lat="53.2997976" lon="18.4240592">
<ele>124</ele>
<time>2015-06-25T12:44:46Z</time>
</trkpt>
<trkpt lat="53.2997976" lon="18.4240592">
<ele>124</ele>
<time>2015-06-25T12:44:48Z</time>
</trkpt>
<trkpt lat="53.2997976" lon="18.4240592">
<ele>124</ele>
<time>2015-06-25T12:44:50Z</time>
</trkpt>
<trkpt lat="53.2997976" lon="18.4240592">
<ele>124</ele>
<time>2015-06-25T12:44:52Z</time>
</trkpt>
<trkpt lat="53.2997976" lon="18.4240591">
<ele>124</ele>
<time>2015-06-25T12:44:54Z</time>
</trkpt>
<trkpt lat="53.2997975" lon="18.4240591">
<ele>124</ele>
<time>2015-06-25T12:44:56Z</time>
</trkpt>
<trkpt lat="53.2997975" lon="18.4240592">
<ele>124</ele>
<time>2015-06-25T12:44:58Z</time>
</trkpt>
<trkpt lat="53.2997975" lon="18.4240592">
<ele>124</ele>
<time>2015-06-25T12:45:00Z</time>
</trkpt>
<trkpt lat="53.2997975" lon="18.4240592">
<ele>124</ele>
<time>2015-06-25T12:45:02Z</time>
</trkpt>
<trkpt lat="53.2997975" lon="18.4240592">
<ele>124</ele>
<time>2015-06-25T12:45:04Z</time>
</trkpt>
<trkpt lat="53.2997975" lon="18.4240592">
<ele>124</ele>
<time>2015-06-25T12:45:06Z</time>
</trkpt>
<trkpt lat="53.2997975" lon="18.4240592">
<ele>124</ele>
<time>2015-06-25T12:45:08Z</time>
</trkpt>
<trkpt lat="53.2997975" lon="18.4240592">
<ele>124</ele>
<time>2015-06-25T12:45:10Z</time>
</trkpt>
<trkpt lat="53.2997975" lon="18.4240592">
<ele>124</ele>
<time>2015-06-25T12:45:12Z</time>
</trkpt>
<trkpt lat="53.2997975" lon="18.4240592">
<ele>124</ele>
<time>2015-06-25T12:45:14Z</time>
</trkpt>
<trkpt lat="53.2997975" lon="18.4240592">
<ele>124</ele>
<time>2015-06-25T12:45:16Z</time>
</trkpt>
<trkpt lat="53.2997975" lon="18.4240592">
<ele>124</ele>
<time>2015-06-25T12:45:18Z</time>
</trkpt>
<trkpt lat="53.2997975" lon="18.4240592">
<ele>124</ele>
<time>2015-06-25T12:45:20Z</time>
</trkpt>
<trkpt lat="53.3184029" lon="18.4221962">
<ele>119</ele>
<time>2015-06-25T12:51:04Z</time>
</trkpt>
<trkpt lat="53.3186765" lon="18.4221383">
<ele>119</ele>
<time>2015-06-25T12:51:06Z</time>
</trkpt>
<trkpt lat="53.3189438" lon="18.4220672">
<ele>121</ele>
<time>2015-06-25T12:51:08Z</time>
</trkpt>
<trkpt lat="53.3192157" lon="18.4220237">
<ele>120</ele>
<time>2015-06-25T12:51:10Z</time>
</trkpt>
<trkpt lat="53.3194872" lon="18.4219812">
<ele>118</ele>
<time>2015-06-25T12:51:12Z</time>
</trkpt>
<trkpt lat="53.3197503" lon="18.4219070">
<ele>118</ele>
<time>2015-06-25T12:51:14Z</time>
</trkpt>
<trkpt lat="53.3200367" lon="18.4218712">
<ele>118</ele>
<time>2015-06-25T12:51:16Z</time>
</trkpt>
<trkpt lat="53.3202908" lon="18.4217862">
<ele>121</ele>
<time>2015-06-25T12:51:18Z</time>
</trkpt>
<trkpt lat="53.3205617" lon="18.4217366">
<ele>121</ele>
<time>2015-06-25T12:51:20Z</time>
</trkpt>
<trkpt lat="53.3208165" lon="18.4216801">
<ele>121</ele>
<time>2015-06-25T12:51:22Z</time>
</trkpt>
<trkpt lat="53.3210564" lon="18.4216168">
<ele>120</ele>
<time>2015-06-25T12:51:24Z</time>
</trkpt>
<trkpt lat="53.3213189" lon="18.4215412">
<ele>119</ele>
<time>2015-06-25T12:51:26Z</time>
</trkpt>
<trkpt lat="53.3215788" lon="18.4214965">
<ele>119</ele>
<time>2015-06-25T12:51:28Z</time>
</trkpt>
<trkpt lat="53.3218292" lon="18.4214332">
<ele>119</ele>
<time>2015-06-25T12:51:30Z</time>
</trkpt>
<trkpt lat="53.3220974" lon="18.4213897">
<ele>119</ele>
<time>2015-06-25T12:51:32Z</time>
</trkpt>
<trkpt lat="53.3223388" lon="18.4213211">
<ele>118</ele>
<time>2015-06-25T12:51:34Z</time>
</trkpt>
<trkpt lat="53.3226160" lon="18.4212932">
<ele>120</ele>
<time>2015-06-25T12:51:36Z</time>
</trkpt>
<trkpt lat="53.3228872" lon="18.4212278">
<ele>119</ele>
<time>2015-06-25T12:51:38Z</time>
</trkpt>
<trkpt lat="53.3231844" lon="18.4211923">
<ele>119</ele>
<time>2015-06-25T12:51:40Z</time>
</trkpt>
<trkpt lat="53.3234651" lon="18.4211025">
<ele>119</ele>
<time>2015-06-25T12:51:42Z</time>
</trkpt>
<trkpt lat="53.3237443" lon="18.4210339">
<ele>118</ele>
<time>2015-06-25T12:51:44Z</time>
</trkpt>
<trkpt lat="53.3240517" lon="18.4209886">
<ele>118</ele>
<time>2015-06-25T12:51:46Z</time>
</trkpt>
<trkpt lat="53.3243437" lon="18.4209548">
<ele>118</ele>
<time>2015-06-25T12:51:48Z</time>
</trkpt>
<trkpt lat="53.3246043" lon="18.4209038">
<ele>118</ele>
<time>2015-06-25T12:51:50Z</time>
</trkpt>
<trkpt lat="53.3248644" lon="18.4208441">
<ele>116</ele>
<time>2015-06-25T12:51:52Z</time>
</trkpt>
<trkpt lat="53.3251542" lon="18.4207982">
<ele>117</ele>
<time>2015-06-25T12:51:54Z</time>
</trkpt>
<trkpt lat="53.3254343" lon="18.4207594">
<ele>118</ele>
<time>2015-06-25T12:51:56Z</time>
</trkpt>
<trkpt lat="53.3257247" lon="18.4206914">
<ele>118</ele>
<time>2015-06-25T12:51:58Z</time>
</trkpt>
<trkpt lat="53.3260078" lon="18.4206037">
<ele>119</ele>
<time>2015-06-25T12:52:00Z</time>
</trkpt>
<trkpt lat="53.3262992" lon="18.4205347">
<ele>118</ele>
<time>2015-06-25T12:52:02Z</time>
</trkpt>
<trkpt lat="53.3266108" lon="18.4204971">
<ele>117</ele>
<time>2015-06-25T12:52:04Z</time>
</trkpt>
<trkpt lat="53.3269218" lon="18.4204486">
<ele>118</ele>
<time>2015-06-25T12:52:06Z</time>
</trkpt>
<trkpt lat="53.3272264" lon="18.4203723">
<ele>118</ele>
<time>2015-06-25T12:52:08Z</time>
</trkpt>
<trkpt lat="53.3275041" lon="18.420292">
<ele>118</ele>
<time>2015-06-25T12:52:10Z</time>
</trkpt>
<trkpt lat="53.3278151" lon="18.4202636">
<ele>118</ele>
<time>2015-06-25T12:52:12Z</time>
</trkpt>
<trkpt lat="53.3280383" lon="18.4202274">
<ele>118</ele>
<time>2015-06-25T12:52:14Z</time>
</trkpt>
<trkpt lat="53.3282688" lon="18.4201587">
<ele>118</ele>
<time>2015-06-25T12:52:16Z</time>
</trkpt>
<trkpt lat="53.3284897" lon="18.4201738">
<ele>120</ele>
<time>2015-06-25T12:52:18Z</time>
</trkpt>
<trkpt lat="53.3286742" lon="18.4202079">
<ele>119</ele>
<time>2015-06-25T12:52:20Z</time>
</trkpt>
<trkpt lat="53.3287794" lon="18.4201989">
<ele>118</ele>
<time>2015-06-25T12:52:22Z</time>
</trkpt>
<trkpt lat="53.3288837" lon="18.4201799">
<ele>118</ele>
<time>2015-06-25T12:52:24Z</time>
</trkpt>
<trkpt lat="53.3289530" lon="18.4200442">
<ele>120</ele>
<time>2015-06-25T12:52:26Z</time>
</trkpt>
<trkpt lat="53.3290927" lon="18.4199790">
<ele>120</ele>
<time>2015-06-25T12:52:28Z</time>
</trkpt>
<trkpt lat="53.3292614" lon="18.4199166">
<ele>118</ele>
<time>2015-06-25T12:52:30Z</time>
</trkpt>
<trkpt lat="53.3294060" lon="18.4198741">
<ele>119</ele>
<time>2015-06-25T12:52:32Z</time>
</trkpt>
<trkpt lat="53.3295507" lon="18.4198440">
<ele>116</ele>
<time>2015-06-25T12:52:34Z</time>
</trkpt>
<trkpt lat="53.3297039" lon="18.4198047">
<ele>116</ele>
<time>2015-06-25T12:52:36Z</time>
</trkpt>
<trkpt lat="53.3298492" lon="18.4197979">
<ele>117</ele>
<time>2015-06-25T12:52:38Z</time>
</trkpt>
<trkpt lat="53.3299809" lon="18.4197932">
<ele>118</ele>
<time>2015-06-25T12:52:40Z</time>
</trkpt>
<trkpt lat="53.3301264" lon="18.4197528">
<ele>119</ele>
<time>2015-06-25T12:52:42Z</time>
</trkpt>
<trkpt lat="53.3302803" lon="18.4197242">
<ele>120</ele>
<time>2015-06-25T12:52:44Z</time>
</trkpt>
<trkpt lat="53.3304608" lon="18.4197085">
<ele>120</ele>
<time>2015-06-25T12:52:46Z</time>
</trkpt>
<trkpt lat="53.3306843" lon="18.4196955">
<ele>121</ele>
<time>2015-06-25T12:52:48Z</time>
</trkpt>
<trkpt lat="53.3308982" lon="18.4196164">
<ele>119</ele>
<time>2015-06-25T12:52:50Z</time>
</trkpt>
<trkpt lat="53.3311408" lon="18.4195647">
<ele>117</ele>
<time>2015-06-25T12:52:52Z</time>
</trkpt>
<trkpt lat="53.3313643" lon="18.4195198">
<ele>116</ele>
<time>2015-06-25T12:52:54Z</time>
</trkpt>
<trkpt lat="53.3316067" lon="18.4194834">
<ele>114</ele>
<time>2015-06-25T12:52:56Z</time>
</trkpt>
<trkpt lat="53.3318264" lon="18.4194480">
<ele>113</ele>
<time>2015-06-25T12:52:58Z</time>
</trkpt>
<trkpt lat="53.3320487" lon="18.4194167">
<ele>114</ele>
<time>2015-06-25T12:53:00Z</time>
</trkpt>
<trkpt lat="53.3321348" lon="18.4193903">
<ele>110</ele>
<time>2015-06-25T12:53:02Z</time>
</trkpt>
<trkpt lat="53.3322226" lon="18.4193937">
<ele>109</ele>
<time>2015-06-25T12:53:04Z</time>
</trkpt>
<trkpt lat="53.3323289" lon="18.4193630">
<ele>109</ele>
<time>2015-06-25T12:53:06Z</time>
</trkpt>
<trkpt lat="53.3324151" lon="18.4193076">
<ele>111</ele>
<time>2015-06-25T12:53:08Z</time>
</trkpt>
<trkpt lat="53.3325604" lon="18.4192802">
<ele>108</ele>
<time>2015-06-25T12:53:10Z</time>
</trkpt>
<trkpt lat="53.3326523" lon="18.4192633">
<ele>107</ele>
<time>2015-06-25T12:53:12Z</time>
</trkpt>
<trkpt lat="53.3327269" lon="18.4192525">
<ele>107</ele>
<time>2015-06-25T12:53:14Z</time>
</trkpt>
<trkpt lat="53.3328149" lon="18.4192458">
<ele>107</ele>
<time>2015-06-25T12:53:16Z</time>
</trkpt>
<trkpt lat="53.3329660" lon="18.4192134">
<ele>108</ele>
<time>2015-06-25T12:53:18Z</time>
</trkpt>
<trkpt lat="53.3331737" lon="18.4191703">
<ele>109</ele>
<time>2015-06-25T12:53:20Z</time>
</trkpt>
<trkpt lat="53.3333534" lon="18.4191381">
<ele>109</ele>
<time>2015-06-25T12:53:22Z</time>
</trkpt>
<trkpt lat="53.3335542" lon="18.4191789">
<ele>110</ele>
<time>2015-06-25T12:53:24Z</time>
</trkpt>
<trkpt lat="53.3337523" lon="18.4192430">
<ele>112</ele>
<time>2015-06-25T12:53:26Z</time>
</trkpt>
<trkpt lat="53.3339634" lon="18.4193746">
<ele>112</ele>
<time>2015-06-25T12:53:28Z</time>
</trkpt>
<trkpt lat="53.3341514" lon="18.4194042">
<ele>110</ele>
<time>2015-06-25T12:53:30Z</time>
</trkpt>
<trkpt lat="53.334304" lon="18.4195228">
<ele>109</ele>
<time>2015-06-25T12:53:32Z</time>
</trkpt>
<trkpt lat="53.3345262" lon="18.4196390">
<ele>109</ele>
<time>2015-06-25T12:53:34Z</time>
</trkpt>
<trkpt lat="53.3347218" lon="18.4198654">
<ele>110</ele>
<time>2015-06-25T12:53:36Z</time>
</trkpt>
<trkpt lat="53.3348899" lon="18.4200427">
<ele>108</ele>
<time>2015-06-25T12:53:38Z</time>
</trkpt>
<trkpt lat="53.3350983" lon="18.4201697">
<ele>107</ele>
<time>2015-06-25T12:53:40Z</time>
</trkpt>
<trkpt lat="53.3353459" lon="18.4202891">
<ele>105</ele>
<time>2015-06-25T12:53:42Z</time>
</trkpt>
<trkpt lat="53.3355902" lon="18.4204334">
<ele>105</ele>
<time>2015-06-25T12:53:44Z</time>
</trkpt>
<trkpt lat="53.3358233" lon="18.4205098">
<ele>106</ele>
<time>2015-06-25T12:53:46Z</time>
</trkpt>
<trkpt lat="53.3361003" lon="18.4205273">
<ele>105</ele>
<time>2015-06-25T12:53:48Z</time>
</trkpt>
<trkpt lat="53.3363688" lon="18.4204346">
<ele>102</ele>
<time>2015-06-25T12:53:50Z</time>
</trkpt>
<trkpt lat="53.3366671" lon="18.4203452">
<ele>105</ele>
<time>2015-06-25T12:53:52Z</time>
</trkpt>
<trkpt lat="53.3369747" lon="18.4201815">
<ele>105</ele>
<time>2015-06-25T12:53:54Z</time>
</trkpt>
<trkpt lat="53.3372655" lon="18.4199583">
<ele>103</ele>
<time>2015-06-25T12:53:56Z</time>
</trkpt>
<trkpt lat="53.3375046" lon="18.4197701">
<ele>105</ele>
<time>2015-06-25T12:53:58Z</time>
</trkpt>
<trkpt lat="53.3376886" lon="18.4196636">
<ele>105</ele>
<time>2015-06-25T12:54:00Z</time>
</trkpt>
<trkpt lat="53.3378628" lon="18.4195507">
<ele>99</ele>
<time>2015-06-25T12:54:02Z</time>
</trkpt>
<trkpt lat="53.3380410" lon="18.4196117">
<ele>99</ele>
<time>2015-06-25T12:54:04Z</time>
</trkpt>
<trkpt lat="53.3383269" lon="18.4197944">
<ele>98</ele>
<time>2015-06-25T12:54:06Z</time>
</trkpt>
<trkpt lat="53.3385975" lon="18.4199271">
<ele>98</ele>
<time>2015-06-25T12:54:08Z</time>
</trkpt>
<trkpt lat="53.3388611" lon="18.4200219">
<ele>97</ele>
<time>2015-06-25T12:54:10Z</time>
</trkpt>
<trkpt lat="53.3391586" lon="18.4197973">
<ele>93</ele>
<time>2015-06-25T12:54:12Z</time>
</trkpt>
<trkpt lat="53.3394776" lon="18.4197081">
<ele>90</ele>
<time>2015-06-25T12:54:14Z</time>
</trkpt>
<trkpt lat="53.3397356" lon="18.4194802">
<ele>92</ele>
<time>2015-06-25T12:54:16Z</time>
</trkpt>
<trkpt lat="53.3399156" lon="18.4192157">
<ele>93</ele>
<time>2015-06-25T12:54:18Z</time>
</trkpt>
<trkpt lat="53.3401374" lon="18.4188431">
<ele>93</ele>
<time>2015-06-25T12:54:20Z</time>
</trkpt>
<trkpt lat="53.3403978" lon="18.4184531">
<ele>90</ele>
<time>2015-06-25T12:54:22Z</time>
</trkpt>
<trkpt lat="53.3406079" lon="18.4180957">
<ele>87</ele>
<time>2015-06-25T12:54:24Z</time>
</trkpt>
<trkpt lat="53.3408228" lon="18.4178665">
<ele>90</ele>
<time>2015-06-25T12:54:26Z</time>
</trkpt>
<trkpt lat="53.3411041" lon="18.4175964">
<ele>91</ele>
<time>2015-06-25T12:54:28Z</time>
</trkpt>
<trkpt lat="53.3413830" lon="18.4175165">
<ele>89</ele>
<time>2015-06-25T12:54:30Z</time>
</trkpt>
<trkpt lat="53.3416460" lon="18.4175276">
<ele>90</ele>
<time>2015-06-25T12:54:32Z</time>
</trkpt>
<trkpt lat="53.3419169" lon="18.4176585">
<ele>89</ele>
<time>2015-06-25T12:54:34Z</time>
</trkpt>
<trkpt lat="53.3421632" lon="18.4178178">
<ele>88</ele>
<time>2015-06-25T12:54:36Z</time>
</trkpt>
<trkpt lat="53.3424590" lon="18.4179674">
<ele>89</ele>
<time>2015-06-25T12:54:38Z</time>
</trkpt>
<trkpt lat="53.3427615" lon="18.4180655">
<ele>87</ele>
<time>2015-06-25T12:54:40Z</time>
</trkpt>
<trkpt lat="53.3430653" lon="18.4182301">
<ele>86</ele>
<time>2015-06-25T12:54:42Z</time>
</trkpt>
<trkpt lat="53.3433688" lon="18.4183119">
<ele>85</ele>
<time>2015-06-25T12:54:44Z</time>
</trkpt>
<trkpt lat="53.3437282" lon="18.4185158">
<ele>84</ele>
<time>2015-06-25T12:54:46Z</time>
</trkpt>
<trkpt lat="53.3440289" lon="18.4187008">
<ele>86</ele>
<time>2015-06-25T12:54:48Z</time>
</trkpt>
<trkpt lat="53.3442445" lon="18.4187850">
<ele>85</ele>
<time>2015-06-25T12:54:50Z</time>
</trkpt>
<trkpt lat="53.3444868" lon="18.4189600">
<ele>83</ele>
<time>2015-06-25T12:54:52Z</time>
</trkpt>
<trkpt lat="53.3446799" lon="18.4191358">
<ele>80</ele>
<time>2015-06-25T12:54:54Z</time>
</trkpt>
<trkpt lat="53.3449056" lon="18.4193732">
<ele>80</ele>
<time>2015-06-25T12:54:56Z</time>
</trkpt>
<trkpt lat="53.3450562" lon="18.4196364">
<ele>78</ele>
<time>2015-06-25T12:54:58Z</time>
</trkpt>
<trkpt lat="53.3451345" lon="18.4199025">
<ele>79</ele>
<time>2015-06-25T12:55:00Z</time>
</trkpt>
<trkpt lat="53.3451316" lon="18.4200053">
<ele>77</ele>
<time>2015-06-25T12:55:02Z</time>
</trkpt>
<trkpt lat="53.3451759" lon="18.4201087">
<ele>79</ele>
<time>2015-06-25T12:55:04Z</time>
</trkpt>
<trkpt lat="53.3451752" lon="18.4201313">
<ele>78</ele>
<time>2015-06-25T12:55:06Z</time>
</trkpt>
<trkpt lat="53.3451683" lon="18.4201786">
<ele>79</ele>
<time>2015-06-25T12:55:08Z</time>
</trkpt>
<trkpt lat="53.3451928" lon="18.4203126">
<ele>81</ele>
<time>2015-06-25T12:55:10Z</time>
</trkpt>
<trkpt lat="53.3452514" lon="18.4205627">
<ele>80</ele>
<time>2015-06-25T12:55:12Z</time>
</trkpt>
<trkpt lat="53.3452943" lon="18.4208252">
<ele>78</ele>
<time>2015-06-25T12:55:14Z</time>
</trkpt>
<trkpt lat="53.3453503" lon="18.4211407">
<ele>75</ele>
<time>2015-06-25T12:55:16Z</time>
</trkpt>
<trkpt lat="53.3454202" lon="18.4215018">
<ele>75</ele>
<time>2015-06-25T12:55:18Z</time>
</trkpt>
<trkpt lat="53.3455057" lon="18.4218796">
<ele>73</ele>
<time>2015-06-25T12:55:20Z</time>
</trkpt>
<trkpt lat="53.3456140" lon="18.4222458">
<ele>75</ele>
<time>2015-06-25T12:55:22Z</time>
</trkpt>
<trkpt lat="53.3457495" lon="18.4225771">
<ele>76</ele>
<time>2015-06-25T12:55:24Z</time>
</trkpt>
<trkpt lat="53.3459207" lon="18.4229054">
<ele>77</ele>
<time>2015-06-25T12:55:26Z</time>
</trkpt>
<trkpt lat="53.3460666" lon="18.4232019">
<ele>77</ele>
<time>2015-06-25T12:55:28Z</time>
</trkpt>
<trkpt lat="53.3462307" lon="18.4234930">
<ele>79</ele>
<time>2015-06-25T12:55:30Z</time>
</trkpt>
<trkpt lat="53.3463922" lon="18.4237542">
<ele>80</ele>
<time>2015-06-25T12:55:32Z</time>
</trkpt>
<trkpt lat="53.3466070" lon="18.4239437">
<ele>82</ele>
<time>2015-06-25T12:55:34Z</time>
</trkpt>
<trkpt lat="53.3468486" lon="18.4239584">
<ele>82</ele>
<time>2015-06-25T12:55:36Z</time>
</trkpt>
<trkpt lat="53.3470329" lon="18.4239096">
<ele>83</ele>
<time>2015-06-25T12:55:38Z</time>
</trkpt>
<trkpt lat="53.3472330" lon="18.4238729">
<ele>85</ele>
<time>2015-06-25T12:55:40Z</time>
</trkpt>
<trkpt lat="53.3474501" lon="18.4237116">
<ele>85</ele>
<time>2015-06-25T12:55:42Z</time>
</trkpt>
<trkpt lat="53.3476306" lon="18.4235738">
<ele>86</ele>
<time>2015-06-25T12:55:44Z</time>
</trkpt>
<trkpt lat="53.3477901" lon="18.4234655">
<ele>85</ele>
<time>2015-06-25T12:55:46Z</time>
</trkpt>
<trkpt lat="53.3478609" lon="18.4233544">
<ele>86</ele>
<time>2015-06-25T12:55:48Z</time>
</trkpt>
<trkpt lat="53.3478462" lon="18.4232915">
<ele>89</ele>
<time>2015-06-25T12:55:50Z</time>
</trkpt>
<trkpt lat="53.3478282" lon="18.4231858">
<ele>92</ele>
<time>2015-06-25T12:55:52Z</time>
</trkpt>
<trkpt lat="53.3478221" lon="18.4230776">
<ele>94</ele>
<time>2015-06-25T12:55:54Z</time>
</trkpt>
<trkpt lat="53.3477975" lon="18.4232082">
<ele>96</ele>
<time>2015-06-25T12:55:56Z</time>
</trkpt>
<trkpt lat="53.3477975" lon="18.4231613">
<ele>98</ele>
<time>2015-06-25T12:55:58Z</time>
</trkpt>
<trkpt lat="53.3477750" lon="18.4230927">
<ele>99</ele>
<time>2015-06-25T12:56:00Z</time>
</trkpt>
<trkpt lat="53.3476966" lon="18.4228811">
<ele>102</ele>
<time>2015-06-25T12:56:02Z</time>
</trkpt>
<trkpt lat="53.3476153" lon="18.4226911">
<ele>101</ele>
<time>2015-06-25T12:56:04Z</time>
</trkpt>
<trkpt lat="53.3475512" lon="18.4224726">
<ele>102</ele>
<time>2015-06-25T12:56:06Z</time>
</trkpt>
<trkpt lat="53.3474748" lon="18.4223365">
<ele>103</ele>
<time>2015-06-25T12:56:08Z</time>
</trkpt>
<trkpt lat="53.3474086" lon="18.4221842">
<ele>103</ele>
<time>2015-06-25T12:56:10Z</time>
</trkpt>
<trkpt lat="53.3473960" lon="18.4220156">
<ele>105</ele>
<time>2015-06-25T12:56:12Z</time>
</trkpt>
<trkpt lat="53.3473999" lon="18.4218625">
<ele>106</ele>
<time>2015-06-25T12:56:14Z</time>
</trkpt>
<trkpt lat="53.3474476" lon="18.4217774">
<ele>108</ele>
<time>2015-06-25T12:56:16Z</time>
</trkpt>
<trkpt lat="53.3475661" lon="18.4216692">
<ele>110</ele>
<time>2015-06-25T12:56:18Z</time>
</trkpt>
<trkpt lat="53.3477382" lon="18.4215450">
<ele>111</ele>
<time>2015-06-25T12:56:20Z</time>
</trkpt>
<trkpt lat="53.3479261" lon="18.4214923">
<ele>112</ele>
<time>2015-06-25T12:56:22Z</time>
</trkpt>
<trkpt lat="53.3480049" lon="18.4213447">
<ele>114</ele>
<time>2015-06-25T12:56:24Z</time>
</trkpt>
<trkpt lat="53.3481192" lon="18.4211925">
<ele>109</ele>
<time>2015-06-25T12:56:26Z</time>
</trkpt>
<trkpt lat="53.3482276" lon="18.4211390">
<ele>109</ele>
<time>2015-06-25T12:56:28Z</time>
</trkpt>
<trkpt lat="53.3483376" lon="18.4209541">
<ele>104</ele>
<time>2015-06-25T12:56:30Z</time>
</trkpt>
<trkpt lat="53.3484641" lon="18.4207711">
<ele>105</ele>
<time>2015-06-25T12:56:32Z</time>
</trkpt>
<trkpt lat="53.3485892" lon="18.4206761">
<ele>105</ele>
<time>2015-06-25T12:56:34Z</time>
</trkpt>
<trkpt lat="53.3487518" lon="18.4205982">
<ele>104</ele>
<time>2015-06-25T12:56:36Z</time>
</trkpt>
<trkpt lat="53.3488148" lon="18.4204650">
<ele>104</ele>
<time>2015-06-25T12:56:38Z</time>
</trkpt>
<trkpt lat="53.3488803" lon="18.4204827">
<ele>101</ele>
<time>2015-06-25T12:56:40Z</time>
</trkpt>
<trkpt lat="53.3488575" lon="18.4203924">
<ele>102</ele>
<time>2015-06-25T12:56:42Z</time>
</trkpt>
<trkpt lat="53.3488237" lon="18.4203176">
<ele>101</ele>
<time>2015-06-25T12:56:44Z</time>
</trkpt>
<trkpt lat="53.3487888" lon="18.4201755">
<ele>104</ele>
<time>2015-06-25T12:56:46Z</time>
</trkpt>
<trkpt lat="53.3487466" lon="18.4199857">
<ele>103</ele>
<time>2015-06-25T12:56:48Z</time>
</trkpt>
<trkpt lat="53.3487182" lon="18.4198744">
<ele>103</ele>
<time>2015-06-25T12:56:50Z</time>
</trkpt>
<trkpt lat="53.3487089" lon="18.4198176">
<ele>102</ele>
<time>2015-06-25T12:56:52Z</time>
</trkpt>
<trkpt lat="53.3487155" lon="18.4197699">
<ele>103</ele>
<time>2015-06-25T12:56:54Z</time>
</trkpt>
<trkpt lat="53.3486815" lon="18.4197123">
<ele>103</ele>
<time>2015-06-25T12:56:56Z</time>
</trkpt>
<trkpt lat="53.3486333" lon="18.4195952">
<ele>108</ele>
<time>2015-06-25T12:56:58Z</time>
</trkpt>
<trkpt lat="53.3485356" lon="18.4194501">
<ele>106</ele>
<time>2015-06-25T12:57:00Z</time>
</trkpt>
<trkpt lat="53.3484983" lon="18.4193624">
<ele>104</ele>
<time>2015-06-25T12:57:02Z</time>
</trkpt>
<trkpt lat="53.3484835" lon="18.4193192">
<ele>105</ele>
<time>2015-06-25T12:57:04Z</time>
</trkpt>
<trkpt lat="53.3484465" lon="18.4192922">
<ele>102</ele>
<time>2015-06-25T12:57:06Z</time>
</trkpt>
<trkpt lat="53.3483374" lon="18.4192812">
<ele>101</ele>
<time>2015-06-25T12:57:10Z</time>
</trkpt>
<trkpt lat="53.348276" lon="18.4193450">
<ele>101</ele>
<time>2015-06-25T12:57:12Z</time>
</trkpt>
<trkpt lat="53.3481963" lon="18.4194279">
<ele>102</ele>
<time>2015-06-25T12:57:14Z</time>
</trkpt>
<trkpt lat="53.3480571" lon="18.4195164">
<ele>102</ele>
<time>2015-06-25T12:57:16Z</time>
</trkpt>
<trkpt lat="53.3479432" lon="18.4195908">
<ele>102</ele>
<time>2015-06-25T12:57:18Z</time>
</trkpt>
<trkpt lat="53.3478265" lon="18.4196341">
<ele>104</ele>
<time>2015-06-25T12:57:20Z</time>
</trkpt>
<trkpt lat="53.3477680" lon="18.4197122">
<ele>105</ele>
<time>2015-06-25T12:57:22Z</time>
</trkpt>
<trkpt lat="53.3477240" lon="18.4197825">
<ele>107</ele>
<time>2015-06-25T12:57:24Z</time>
</trkpt>
<trkpt lat="53.3476786" lon="18.4198607">
<ele>109</ele>
<time>2015-06-25T12:57:26Z</time>
</trkpt>
<trkpt lat="53.3476419" lon="18.4199147">
<ele>108</ele>
<time>2015-06-25T12:57:28Z</time>
</trkpt>
<trkpt lat="53.3475585" lon="18.4199794">
<ele>108</ele>
<time>2015-06-25T12:57:30Z</time>
</trkpt>
<trkpt lat="53.3474764" lon="18.4200627">
<ele>106</ele>
<time>2015-06-25T12:57:32Z</time>
</trkpt>
<trkpt lat="53.3474122" lon="18.4201475">
<ele>108</ele>
<time>2015-06-25T12:57:34Z</time>
</trkpt>
<trkpt lat="53.3473737" lon="18.4201916">
<ele>110</ele>
<time>2015-06-25T12:57:36Z</time>
</trkpt>
<trkpt lat="53.3473667" lon="18.4201599">
<ele>110</ele>
<time>2015-06-25T12:57:38Z</time>
</trkpt>
<trkpt lat="53.3473614" lon="18.4201458">
<ele>110</ele>
<time>2015-06-25T12:57:40Z</time>
</trkpt>
<trkpt lat="53.3473649" lon="18.4201386">
<ele>110</ele>
<time>2015-06-25T12:57:42Z</time>
</trkpt>
<trkpt lat="53.3473676" lon="18.4201461">
<ele>107</ele>
<time>2015-06-25T12:57:44Z</time>
</trkpt>
<trkpt lat="53.3473678" lon="18.4201524">
<ele>107</ele>
<time>2015-06-25T12:57:46Z</time>
</trkpt>
<trkpt lat="53.3473691" lon="18.4201504">
<ele>108</ele>
<time>2015-06-25T12:57:48Z</time>
</trkpt>
<trkpt lat="53.3473701" lon="18.4201470">
<ele>108</ele>
<time>2015-06-25T12:57:50Z</time>
</trkpt>
<trkpt lat="53.3473705" lon="18.4201448">
<ele>108</ele>
<time>2015-06-25T12:57:52Z</time>
</trkpt>
<trkpt lat="53.3473704" lon="18.4201447">
<ele>108</ele>
<time>2015-06-25T12:57:54Z</time>
</trkpt>
<trkpt lat="53.3473703" lon="18.4201449">
<ele>108</ele>
<time>2015-06-25T12:57:56Z</time>
</trkpt>
<trkpt lat="53.3473704" lon="18.4201445">
<ele>108</ele>
<time>2015-06-25T12:57:58Z</time>
</trkpt>
<trkpt lat="53.3473705" lon="18.4201442">
<ele>108</ele>
<time>2015-06-25T12:58:00Z</time>
</trkpt>
<trkpt lat="53.3473702" lon="18.4201437">
<ele>108</ele>
<time>2015-06-25T12:58:02Z</time>
</trkpt>
<trkpt lat="53.3473700" lon="18.4201434">
<ele>108</ele>
<time>2015-06-25T12:58:04Z</time>
</trkpt>
<trkpt lat="53.3473699" lon="18.4201431">
<ele>108</ele>
<time>2015-06-25T12:58:06Z</time>
</trkpt>
<trkpt lat="53.3473698" lon="18.4201429">
<ele>108</ele>
<time>2015-06-25T12:58:08Z</time>
</trkpt>
<trkpt lat="53.3473697" lon="18.4201428">
<ele>108</ele>
<time>2015-06-25T12:58:10Z</time>
</trkpt>
<trkpt lat="53.3473698" lon="18.4201426">
<ele>108</ele>
<time>2015-06-25T12:58:12Z</time>
</trkpt>
<trkpt lat="53.3473698" lon="18.4201425">
<ele>108</ele>
<time>2015-06-25T12:58:14Z</time>
</trkpt>
<trkpt lat="53.3473697" lon="18.4201423">
<ele>108</ele>
<time>2015-06-25T12:58:16Z</time>
</trkpt>
<trkpt lat="53.3473697" lon="18.4201423">
<ele>108</ele>
<time>2015-06-25T12:58:18Z</time>
</trkpt>
<trkpt lat="53.3473697" lon="18.4201424">
<ele>108</ele>
<time>2015-06-25T12:58:22Z</time>
</trkpt>
<trkpt lat="53.3473696" lon="18.4201423">
<ele>108</ele>
<time>2015-06-25T12:58:24Z</time>
</trkpt>
<trkpt lat="53.3473694" lon="18.4201418">
<ele>108</ele>
<time>2015-06-25T12:58:26Z</time>
</trkpt>
<trkpt lat="53.3473690" lon="18.4201413">
<ele>108</ele>
<time>2015-06-25T12:58:28Z</time>
</trkpt>
<trkpt lat="53.3473689" lon="18.4201411">
<ele>108</ele>
<time>2015-06-25T12:58:30Z</time>
</trkpt>
<trkpt lat="53.3473684" lon="18.4201410">
<ele>108</ele>
<time>2015-06-25T12:58:34Z</time>
</trkpt>
<trkpt lat="53.3473682" lon="18.4201410">
<ele>108</ele>
<time>2015-06-25T12:58:36Z</time>
</trkpt>
<trkpt lat="53.3473682" lon="18.4201409">
<ele>108</ele>
<time>2015-06-25T12:58:38Z</time>
</trkpt>
<trkpt lat="53.3473681" lon="18.4201408">
<ele>108</ele>
<time>2015-06-25T12:58:40Z</time>
</trkpt>
<trkpt lat="53.3473680" lon="18.4201407">
<ele>108</ele>
<time>2015-06-25T12:58:42Z</time>
</trkpt>
<trkpt lat="53.3473680" lon="18.4201406">
<ele>108</ele>
<time>2015-06-25T12:58:44Z</time>
</trkpt>
<trkpt lat="53.3473680" lon="18.4201406">
<ele>108</ele>
<time>2015-06-25T12:58:46Z</time>
</trkpt>
<trkpt lat="53.3473679" lon="18.4201405">
<ele>108</ele>
<time>2015-06-25T12:58:50Z</time>
</trkpt>
<trkpt lat="53.3473679" lon="18.4201404">
<ele>108</ele>
<time>2015-06-25T12:58:52Z</time>
</trkpt>
<trkpt lat="53.3473678" lon="18.4201403">
<ele>108</ele>
<time>2015-06-25T12:58:54Z</time>
</trkpt>
<trkpt lat="53.3473678" lon="18.4201403">
<ele>108</ele>
<time>2015-06-25T12:58:56Z</time>
</trkpt>
<trkpt lat="53.3473678" lon="18.4201403">
<ele>108</ele>
<time>2015-06-25T12:58:58Z</time>
</trkpt>
<trkpt lat="53.3473678" lon="18.4201403">
<ele>108</ele>
<time>2015-06-25T12:59:00Z</time>
</trkpt>
<trkpt lat="53.3473678" lon="18.4201404">
<ele>108</ele>
<time>2015-06-25T12:59:02Z</time>
</trkpt>
<trkpt lat="53.3473677" lon="18.4201404">
<ele>108</ele>
<time>2015-06-25T12:59:04Z</time>
</trkpt>
<trkpt lat="53.3473676" lon="18.4201404">
<ele>108</ele>
<time>2015-06-25T12:59:06Z</time>
</trkpt>
<trkpt lat="53.3473672" lon="18.4201414">
<ele>109</ele>
<time>2015-06-25T12:59:08Z</time>
</trkpt>
<trkpt lat="53.3473669" lon="18.4201420">
<ele>109</ele>
<time>2015-06-25T12:59:10Z</time>
</trkpt>
<trkpt lat="53.3473668" lon="18.4201423">
<ele>109</ele>
<time>2015-06-25T12:59:12Z</time>
</trkpt>
<trkpt lat="53.3473667" lon="18.4201424">
<ele>109</ele>
<time>2015-06-25T12:59:14Z</time>
</trkpt>
<trkpt lat="53.3473666" lon="18.4201424">
<ele>109</ele>
<time>2015-06-25T12:59:16Z</time>
</trkpt>
<trkpt lat="53.3473665" lon="18.4201425">
<ele>109</ele>
<time>2015-06-25T12:59:18Z</time>
</trkpt>
<trkpt lat="53.3473664" lon="18.4201425">
<ele>109</ele>
<time>2015-06-25T12:59:20Z</time>
</trkpt>
<trkpt lat="53.3473664" lon="18.4201425">
<ele>109</ele>
<time>2015-06-25T12:59:22Z</time>
</trkpt>
<trkpt lat="53.3473663" lon="18.4201425">
<ele>109</ele>
<time>2015-06-25T12:59:24Z</time>
</trkpt>
<trkpt lat="53.3473663" lon="18.4201425">
<ele>109</ele>
<time>2015-06-25T12:59:26Z</time>
</trkpt>
<trkpt lat="53.3473663" lon="18.4201425">
<ele>109</ele>
<time>2015-06-25T12:59:28Z</time>
</trkpt>
<trkpt lat="53.3473661" lon="18.4201424">
<ele>109</ele>
<time>2015-06-25T12:59:30Z</time>
</trkpt>
<trkpt lat="53.3473661" lon="18.4201424">
<ele>109</ele>
<time>2015-06-25T12:59:32Z</time>
</trkpt>
<trkpt lat="53.3473660" lon="18.4201423">
<ele>109</ele>
<time>2015-06-25T12:59:34Z</time>
</trkpt>
<trkpt lat="53.3473660" lon="18.4201423">
<ele>109</ele>
<time>2015-06-25T12:59:36Z</time>
</trkpt>
<trkpt lat="53.3473661" lon="18.4201422">
<ele>109</ele>
<time>2015-06-25T12:59:38Z</time>
</trkpt>
<trkpt lat="53.3473661" lon="18.4201421">
<ele>109</ele>
<time>2015-06-25T12:59:40Z</time>
</trkpt>
<trkpt lat="53.3473660" lon="18.4201421">
<ele>109</ele>
<time>2015-06-25T12:59:42Z</time>
</trkpt>
<trkpt lat="53.3473659" lon="18.4201420">
<ele>109</ele>
<time>2015-06-25T12:59:44Z</time>
</trkpt>
<trkpt lat="53.3473658" lon="18.4201420">
<ele>109</ele>
<time>2015-06-25T12:59:46Z</time>
</trkpt>
<trkpt lat="53.3473658" lon="18.4201420">
<ele>109</ele>
<time>2015-06-25T12:59:52Z</time>
</trkpt>
<trkpt lat="53.3473659" lon="18.4201421">
<ele>109</ele>
<time>2015-06-25T12:59:54Z</time>
</trkpt>
<trkpt lat="53.3473658" lon="18.4201420">
<ele>109</ele>
<time>2015-06-25T12:59:56Z</time>
</trkpt>
<trkpt lat="53.3473658" lon="18.4201420">
<ele>109</ele>
<time>2015-06-25T12:59:58Z</time>
</trkpt>
<trkpt lat="53.3473657" lon="18.4201420">
<ele>109</ele>
<time>2015-06-25T13:00:00Z</time>
</trkpt>
<trkpt lat="53.3473657" lon="18.4201420">
<ele>109</ele>
<time>2015-06-25T13:00:02Z</time>
</trkpt>
<trkpt lat="53.3473657" lon="18.4201419">
<ele>109</ele>
<time>2015-06-25T13:00:04Z</time>
</trkpt>
<trkpt lat="53.3473657" lon="18.4201419">
<ele>109</ele>
<time>2015-06-25T13:00:06Z</time>
</trkpt>
<trkpt lat="53.3473655" lon="18.4201419">
<ele>109</ele>
<time>2015-06-25T13:00:08Z</time>
</trkpt>
<trkpt lat="53.3473655" lon="18.4201418">
<ele>109</ele>
<time>2015-06-25T13:00:10Z</time>
</trkpt>
<trkpt lat="53.3473654" lon="18.4201417">
<ele>109</ele>
<time>2015-06-25T13:00:12Z</time>
</trkpt>
<trkpt lat="53.3473652" lon="18.4201416">
<ele>109</ele>
<time>2015-06-25T13:00:14Z</time>
</trkpt>
<trkpt lat="53.3473651" lon="18.4201416">
<ele>109</ele>
<time>2015-06-25T13:00:16Z</time>
</trkpt>
<trkpt lat="53.3473651" lon="18.4201415">
<ele>109</ele>
<time>2015-06-25T13:00:18Z</time>
</trkpt>
<trkpt lat="53.3473651" lon="18.4201414">
<ele>109</ele>
<time>2015-06-25T13:00:20Z</time>
</trkpt>
<trkpt lat="53.3473651" lon="18.4201414">
<ele>109</ele>
<time>2015-06-25T13:00:22Z</time>
</trkpt>
<trkpt lat="53.3473651" lon="18.4201414">
<ele>109</ele>
<time>2015-06-25T13:00:24Z</time>
</trkpt>
<trkpt lat="53.3473652" lon="18.4201416">
<ele>109</ele>
<time>2015-06-25T13:00:26Z</time>
</trkpt>
<trkpt lat="53.3473652" lon="18.4201416">
<ele>109</ele>
<time>2015-06-25T13:00:28Z</time>
</trkpt>
<trkpt lat="53.3473653" lon="18.4201416">
<ele>109</ele>
<time>2015-06-25T13:00:30Z</time>
</trkpt>
<trkpt lat="53.3473653" lon="18.4201416">
<ele>109</ele>
<time>2015-06-25T13:00:32Z</time>
</trkpt>
<trkpt lat="53.3473653" lon="18.4201416">
<ele>109</ele>
<time>2015-06-25T13:00:34Z</time>
</trkpt>
<trkpt lat="53.3473652" lon="18.4201416">
<ele>109</ele>
<time>2015-06-25T13:00:36Z</time>
</trkpt>
<trkpt lat="53.3473652" lon="18.4201416">
<ele>109</ele>
<time>2015-06-25T13:00:38Z</time>
</trkpt>
<trkpt lat="53.3473652" lon="18.4201415">
<ele>109</ele>
<time>2015-06-25T13:00:40Z</time>
</trkpt>
<trkpt lat="53.3473652" lon="18.4201415">
<ele>109</ele>
<time>2015-06-25T13:00:42Z</time>
</trkpt>
<trkpt lat="53.3473652" lon="18.4201414">
<ele>109</ele>
<time>2015-06-25T13:00:44Z</time>
</trkpt>
<trkpt lat="53.3473652" lon="18.4201414">
<ele>109</ele>
<time>2015-06-25T13:00:46Z</time>
</trkpt>
<trkpt lat="53.3473651" lon="18.4201414">
<ele>109</ele>
<time>2015-06-25T13:00:48Z</time>
</trkpt>
<trkpt lat="53.3473650" lon="18.4201414">
<ele>109</ele>
<time>2015-06-25T13:00:50Z</time>
</trkpt>
<trkpt lat="53.3473649" lon="18.4201413">
<ele>109</ele>
<time>2015-06-25T13:00:54Z</time>
</trkpt>
<trkpt lat="53.3473648" lon="18.4201413">
<ele>109</ele>
<time>2015-06-25T13:00:56Z</time>
</trkpt>
<trkpt lat="53.3473649" lon="18.4201413">
<ele>109</ele>
<time>2015-06-25T13:00:58Z</time>
</trkpt>
<trkpt lat="53.3473649" lon="18.4201413">
<ele>109</ele>
<time>2015-06-25T13:01:00Z</time>
</trkpt>
<trkpt lat="53.3473649" lon="18.4201413">
<ele>109</ele>
<time>2015-06-25T13:01:02Z</time>
</trkpt>
<trkpt lat="53.3473649" lon="18.4201413">
<ele>109</ele>
<time>2015-06-25T13:01:04Z</time>
</trkpt>
<trkpt lat="53.3473649" lon="18.4201412">
<ele>109</ele>
<time>2015-06-25T13:01:06Z</time>
</trkpt>
<trkpt lat="" lon="">
<ele></ele>
<time>2015-06-25TZ</time>
</trkpt>
</trkseg>
</trk>
<wpt lat="" lon="">
	<name></name>
	<desc></desc>
	<cmt></cmt>
	<photoid></photoid>
	<type></type>
</wpt>
</gpx>
